2016 Cux-Wetter.de -Die Nutzung der Wetterdaten nur mit ausdrcklicher Genehmigung
Wetterdaten: Montag, 12.02.2018
Datum Zeit Temp. A. Feuchte A. Luftdruck Regen Wind Richtung Richtung Sonnenschein Solar Taupunkt Windchill Windben
12.02.2018 00:00 2,6 C 90 % 997,4 hPa 0,0 l/m 22,5 km/h (4 Bft) SW 223 0 min 0 W/m 1,1 C -7,3 C 33,8 km/h (5 Bft)
12.02.2018 00:03 2,6 C 90 % 997,6 hPa 0,0 l/m 22,2 km/h (4 Bft) S 188 0 min 0 W/m 1,1 C -7,2 C 32,2 km/h (5 Bft)
12.02.2018 00:06 2,6 C 89 % 997,6 hPa 0,0 l/m 22,0 km/h (4 Bft) SW 218 0 min 0 W/m 1,0 C -7,1 C 30,6 km/h (5 Bft)
12.02.2018 00:09 2,6 C 89 % 997,6 hPa 0,0 l/m 23,1 km/h (4 Bft) S-SW 204 0 min 0 W/m 1,0 C -7,5 C 33,8 km/h (5 Bft)
12.02.2018 00:12 2,6 C 89 % 997,7 hPa 0,0 l/m 22,1 km/h (4 Bft) S-SW 200 0 min 0 W/m 1,0 C -7,1 C 29,0 km/h (5 Bft)
12.02.2018 00:15 2,6 C 89 % 997,7 hPa 0,0 l/m 21,6 km/h (4 Bft) SW 228 0 min 0 W/m 1,0 C -6,9 C 35,4 km/h (5 Bft)
12.02.2018 00:18 2,6 C 90 % 997,6 hPa 0,0 l/m 21,1 km/h (4 Bft) SW 219 0 min 0 W/m 1,1 C -6,7 C 37,0 km/h (5 Bft)
12.02.2018 00:21 2,6 C 90 % 997,6 hPa 0,0 l/m 22,5 km/h (4 Bft) S-SW 195 0 min 0 W/m 1,1 C -7,3 C 30,6 km/h (5 Bft)
12.02.2018 00:24 2,5 C 90 % 997,6 hPa 0,0 l/m 18,7 km/h (3 Bft) SW 234 0 min 0 W/m 1,0 C -5,8 C 29,0 km/h (5 Bft)
12.02.2018 00:27 2,4 C 90 % 997,6 hPa 0,0 l/m 19,7 km/h (3 Bft) SW 219 0 min 0 W/m 0,9 C -6,4 C 29,0 km/h (5 Bft)
12.02.2018 00:30 2,4 C 90 % 997,6 hPa 0,0 l/m 20,5 km/h (4 Bft) SW 215 0 min 0 W/m 0,9 C -6,7 C 30,6 km/h (5 Bft)
12.02.2018 00:33 2,4 C 90 % 997,7 hPa 0,0 l/m 18,4 km/h (3 Bft) SW 225 0 min 0 W/m 0,9 C -5,8 C 30,6 km/h (5 Bft)
12.02.2018 00:36 2,3 C 90 % 997,7 hPa 0,0 l/m 21,5 km/h (4 Bft) SW 229 0 min 0 W/m 0,8 C -7,3 C 33,8 km/h (5 Bft)
12.02.2018 00:39 2,3 C 90 % 997,8 hPa 0,0 l/m 20,2 km/h (4 Bft) SW 215 0 min 0 W/m 0,8 C -6,7 C 27,4 km/h (5 Bft)
12.02.2018 00:42 2,3 C 90 % 997,9 hPa 0,0 l/m 23,3 km/h (4 Bft) SW 225 0 min 0 W/m 0,8 C -8,0 C 33,8 km/h (5 Bft)
12.02.2018 00:45 2,4 C 90 % 997,9 hPa 0,0 l/m 23,8 km/h (4 Bft) W-SW 239 0 min 0 W/m 0,9 C -8,0 C 33,8 km/h (5 Bft)
12.02.2018 00:48 2,4 C 90 % 998,0 hPa 0,0 l/m 22,9 km/h (4 Bft) SW 215 0 min 0 W/m 0,9 C -7,7 C 32,2 km/h (5 Bft)
12.02.2018 00:51 2,4 C 90 % 998,1 hPa 0,0 l/m 21,9 km/h (4 Bft) SW 224 0 min 0 W/m 0,9 C -7,3 C 35,4 km/h (5 Bft)
12.02.2018 00:54 2,4 C 90 % 998,2 hPa 0,0 l/m 19,7 km/h (3 Bft) SW 223 0 min 0 W/m 0,9 C -6,4 C 25,7 km/h (4 Bft)
12.02.2018 00:57 2,4 C 90 % 998,3 hPa 0,0 l/m 27,4 km/h (5 Bft) S 184 0 min 0 W/m 0,9 C -9,3 C 46,7 km/h (6 Bft)
12.02.2018 01:00 2,6 C 90 % 998,4 hPa 0,0 l/m 27,1 km/h (5 Bft) W-SW 240 0 min 0 W/m 1,1 C -8,9 C 40,2 km/h (6 Bft)
12.02.2018 01:03 2,6 C 90 % 998,3 hPa 0,0 l/m 20,4 km/h (4 Bft) SW 222 0 min 0 W/m 1,1 C -6,4 C 27,4 km/h (5 Bft)
12.02.2018 01:06 2,6 C 90 % 998,2 hPa 0,0 l/m 25,6 km/h (4 Bft) SW 223 0 min 0 W/m 1,1 C -8,4 C 37,0 km/h (5 Bft)
12.02.2018 01:09 2,6 C 90 % 998,2 hPa 0,0 l/m 25,3 km/h (4 Bft) SW 227 0 min 0 W/m 1,1 C -8,3 C 35,4 km/h (5 Bft)
12.02.2018 01:12 2,6 C 90 % 998,2 hPa 0,0 l/m 19,7 km/h (3 Bft) SW 226 0 min 0 W/m 1,1 C -6,1 C 32,2 km/h (5 Bft)
12.02.2018 01:15 2,5 C 90 % 998,3 hPa 0,0 l/m 21,3 km/h (4 Bft) S-SW 213 0 min 0 W/m 1,0 C -6,9 C 32,2 km/h (5 Bft)
12.02.2018 01:18 2,5 C 90 % 998,3 hPa 0,0 l/m 19,9 km/h (4 Bft) SW 216 0 min 0 W/m 1,0 C -6,4 C 32,2 km/h (5 Bft)
12.02.2018 01:21 2,4 C 91 % 998,3 hPa 0,0 l/m 18,4 km/h (3 Bft) SW 222 0 min 0 W/m 1,1 C -5,8 C 27,4 km/h (5 Bft)
12.02.2018 01:24 2,4 C 91 % 998,2 hPa 0,0 l/m 16,3 km/h (3 Bft) SW 223 0 min 0 W/m 1,1 C -4,8 C 25,7 km/h (4 Bft)
12.02.2018 01:27 2,4 C 91 % 998,2 hPa 0,0 l/m 19,0 km/h (3 Bft) S-SW 211 0 min 0 W/m 1,1 C -6,1 C 29,0 km/h (5 Bft)
12.02.2018 01:30 2,4 C 91 % 998,3 hPa 0,0 l/m 19,9 km/h (4 Bft) SW 231 0 min 0 W/m 1,1 C -6,5 C 29,0 km/h (5 Bft)
12.02.2018 01:33 2,4 C 91 % 998,3 hPa 0,0 l/m 18,8 km/h (3 Bft) S 190 0 min 0 W/m 1,1 C -6,0 C 27,4 km/h (5 Bft)
12.02.2018 01:36 2,3 C 91 % 998,3 hPa 0,0 l/m 21,3 km/h (4 Bft) S-SW 211 0 min 0 W/m 1,0 C -7,2 C 37,0 km/h (5 Bft)
12.02.2018 01:39 2,3 C 91 % 998,4 hPa 0,0 l/m 19,9 km/h (4 Bft) SW 224 0 min 0 W/m 1,0 C -6,6 C 30,6 km/h (5 Bft)
12.02.2018 01:42 2,3 C 91 % 998,4 hPa 0,0 l/m 22,6 km/h (4 Bft) SW 229 0 min 0 W/m 1,0 C -7,7 C 32,2 km/h (5 Bft)
12.02.2018 01:45 2,3 C 91 % 998,4 hPa 0,0 l/m 21,1 km/h (4 Bft) S-SW 198 0 min 0 W/m 1,0 C -7,1 C 32,2 km/h (5 Bft)
12.02.2018 01:48 2,3 C 91 % 998,5 hPa 0,0 l/m 19,2 km/h (3 Bft) W-SW 238 0 min 0 W/m 1,0 C -6,3 C 27,4 km/h (5 Bft)
12.02.2018 01:51 2,3 C 91 % 998,5 hPa 0,0 l/m 22,3 km/h (4 Bft) SW 232 0 min 0 W/m 1,0 C -7,6 C 30,6 km/h (5 Bft)
12.02.2018 01:54 2,3 C 91 % 998,5 hPa 0,0 l/m 21,5 km/h (4 Bft) S-SW 206 0 min 0 W/m 1,0 C -7,3 C 35,4 km/h (5 Bft)
12.02.2018 01:57 2,3 C 91 % 998,5 hPa 0,0 l/m 24,5 km/h (4 Bft) SW 215 0 min 0 W/m 1,0 C -8,4 C 40,2 km/h (6 Bft)
12.02.2018 02:00 2,4 C 91 % 998,5 hPa 0,0 l/m 22,9 km/h (4 Bft) SW 223 0 min 0 W/m 1,1 C -7,7 C 37,0 km/h (5 Bft)
12.02.2018 02:03 2,4 C 91 % 998,6 hPa 0,0 l/m 23,1 km/h (4 Bft) SW 222 0 min 0 W/m 1,1 C -7,8 C 32,2 km/h (5 Bft)
12.02.2018 02:06 2,4 C 91 % 998,6 hPa 0,0 l/m 25,6 km/h (4 Bft) SW 232 0 min 0 W/m 1,1 C -8,7 C 35,4 km/h (5 Bft)
12.02.2018 02:09 2,4 C 91 % 998,6 hPa 0,0 l/m 23,1 km/h (4 Bft) SW 227 0 min 0 W/m 1,1 C -7,8 C 33,8 km/h (5 Bft)
12.02.2018 02:12 2,4 C 91 % 998,6 hPa 0,0 l/m 23,4 km/h (4 Bft) SW 218 0 min 0 W/m 1,1 C -7,9 C 33,8 km/h (5 Bft)
12.02.2018 02:15 2,4 C 90 % 998,7 hPa 0,0 l/m 23,9 km/h (4 Bft) SW 227 0 min 0 W/m 0,9 C -8,1 C 32,2 km/h (5 Bft)
12.02.2018 02:18 2,4 C 90 % 998,6 hPa 0,0 l/m 24,4 km/h (4 Bft) SW 220 0 min 0 W/m 0,9 C -8,3 C 43,5 km/h (6 Bft)
12.02.2018 02:21 2,4 C 90 % 998,6 hPa 0,0 l/m 22,6 km/h (4 Bft) SW 227 0 min 0 W/m 0,9 C -7,6 C 30,6 km/h (5 Bft)
12.02.2018 02:24 2,4 C 90 % 998,7 hPa 0,0 l/m 22,0 km/h (4 Bft) S-SW 209 0 min 0 W/m 0,9 C -7,4 C 33,8 km/h (5 Bft)
12.02.2018 02:27 2,4 C 90 % 998,7 hPa 0,0 l/m 24,6 km/h (4 Bft) SW 225 0 min 0 W/m 0,9 C -8,3 C 38,6 km/h (6 Bft)
12.02.2018 02:30 2,4 C 90 % 998,7 hPa 0,0 l/m 25,0 km/h (4 Bft) S-SW 199 0 min 0 W/m 0,9 C -8,5 C 37,0 km/h (5 Bft)
12.02.2018 02:33 2,4 C 90 % 998,8 hPa 0,0 l/m 21,1 km/h (4 Bft) SW 221 0 min 0 W/m 0,9 C -7,0 C 32,2 km/h (5 Bft)
12.02.2018 02:36 2,3 C 90 % 998,8 hPa 0,0 l/m 20,5 km/h (4 Bft) SW 229 0 min 0 W/m 0,8 C -6,9 C 29,0 km/h (5 Bft)
12.02.2018 02:39 2,3 C 90 % 998,8 hPa 0,0 l/m 23,9 km/h (4 Bft) SW 232 0 min 0 W/m 0,8 C -8,2 C 33,8 km/h (5 Bft)
12.02.2018 02:42 2,3 C 90 % 998,9 hPa 0,0 l/m 21,9 km/h (4 Bft) W-SW 246 0 min 0 W/m 0,8 C -7,4 C 30,6 km/h (5 Bft)
12.02.2018 02:45 2,3 C 90 % 998,9 hPa 0,0 l/m 21,5 km/h (4 Bft) S-SW 211 0 min 0 W/m 0,8 C -7,3 C 29,0 km/h (5 Bft)
12.02.2018 02:48 2,3 C 91 % 999,0 hPa 0,0 l/m 21,0 km/h (4 Bft) S-SW 202 0 min 0 W/m 1,0 C -7,1 C 33,8 km/h (5 Bft)
12.02.2018 02:51 2,3 C 91 % 999,0 hPa 0,0 l/m 21,8 km/h (4 Bft) W-SW 238 0 min 0 W/m 1,0 C -7,4 C 35,4 km/h (5 Bft)
12.02.2018 02:54 2,2 C 91 % 999,1 hPa 0,0 l/m 22,9 km/h (4 Bft) SW 223 0 min 0 W/m 0,9 C -8,0 C 32,2 km/h (5 Bft)
12.02.2018 02:57 2,2 C 91 % 999,0 hPa 0,0 l/m 23,6 km/h (4 Bft) SW 216 0 min 0 W/m 0,9 C -8,2 C 37,0 km/h (5 Bft)
12.02.2018 03:00 2,2 C 91 % 999,1 hPa 0,0 l/m 25,7 km/h (4 Bft) SW 234 0 min 0 W/m 0,9 C -9,0 C 37,0 km/h (5 Bft)
12.02.2018 03:03 2,2 C 91 % 999,1 hPa 0,0 l/m 23,3 km/h (4 Bft) SW 226 0 min 0 W/m 0,9 C -8,1 C 30,6 km/h (5 Bft)
12.02.2018 03:06 2,2 C 91 % 999,1 hPa 0,0 l/m 23,3 km/h (4 Bft) SW 229 0 min 0 W/m 0,9 C -8,1 C 35,4 km/h (5 Bft)
12.02.2018 03:09 2,2 C 91 % 999,1 hPa 0,0 l/m 24,0 km/h (4 Bft) W-SW 254 0 min 0 W/m 0,9 C -8,4 C 43,5 km/h (6 Bft)
12.02.2018 03:12 2,2 C 91 % 999,1 hPa 0,0 l/m 23,6 km/h (4 Bft) W-SW 254 0 min 0 W/m 0,9 C -8,2 C 32,2 km/h (5 Bft)
12.02.2018 03:15 2,2 C 91 % 999,2 hPa 0,0 l/m 23,3 km/h (4 Bft) W-SW 238 0 min 0 W/m 0,9 C -8,1 C 33,8 km/h (5 Bft)
12.02.2018 03:18 2,2 C 91 % 999,2 hPa 0,0 l/m 25,8 km/h (4 Bft) W-SW 246 0 min 0 W/m 0,9 C -9,0 C 38,6 km/h (6 Bft)
12.02.2018 03:21 2,2 C 91 % 999,2 hPa 0,0 l/m 23,8 km/h (4 Bft) S-SW 209 0 min 0 W/m 0,9 C -8,3 C 33,8 km/h (5 Bft)
12.02.2018 03:24 2,2 C 91 % 999,2 hPa 0,0 l/m 24,1 km/h (4 Bft) SW 219 0 min 0 W/m 0,9 C -8,4 C 40,2 km/h (6 Bft)
12.02.2018 03:27 2,2 C 91 % 999,3 hPa 0,0 l/m 25,4 km/h (4 Bft) SW 225 0 min 0 W/m 0,9 C -8,9 C 33,8 km/h (5 Bft)
12.02.2018 03:30 2,2 C 91 % 999,3 hPa 0,0 l/m 26,5 km/h (4 Bft) SW 223 0 min 0 W/m 0,9 C -9,2 C 40,2 km/h (6 Bft)
12.02.2018 03:33 2,2 C 91 % 999,3 hPa 0,0 l/m 23,4 km/h (4 Bft) SW 234 0 min 0 W/m 0,9 C -8,2 C 35,4 km/h (5 Bft)
12.02.2018 03:36 2,3 C 91 % 999,4 hPa 0,0 l/m 23,6 km/h (4 Bft) W-SW 242 0 min 0 W/m 1,0 C -8,1 C 32,2 km/h (5 Bft)
12.02.2018 03:39 2,2 C 91 % 999,3 hPa 0,0 l/m 24,8 km/h (4 Bft) SW 235 0 min 0 W/m 0,9 C -8,7 C 40,2 km/h (6 Bft)
12.02.2018 03:42 2,2 C 91 % 999,3 hPa 0,0 l/m 23,1 km/h (4 Bft) SW 223 0 min 0 W/m 0,9 C -8,0 C 37,0 km/h (5 Bft)
12.02.2018 03:45 2,2 C 91 % 999,4 hPa 0,0 l/m 22,6 km/h (4 Bft) S-SW 203 0 min 0 W/m 0,9 C -7,9 C 38,6 km/h (6 Bft)
12.02.2018 03:48 2,2 C 91 % 999,4 hPa 0,0 l/m 21,7 km/h (4 Bft) S-SW 209 0 min 0 W/m 0,9 C -7,5 C 29,0 km/h (5 Bft)
12.02.2018 03:51 2,2 C 91 % 999,4 hPa 0,0 l/m 23,8 km/h (4 Bft) SW 234 0 min 0 W/m 0,9 C -8,3 C 33,8 km/h (5 Bft)
12.02.2018 03:54 2,2 C 91 % 999,4 hPa 0,0 l/m 21,1 km/h (4 Bft) SW 219 0 min 0 W/m 0,9 C -7,3 C 32,2 km/h (5 Bft)
12.02.2018 03:57 2,2 C 90 % 999,4 hPa 0,0 l/m 21,5 km/h (4 Bft) SW 227 0 min 0 W/m 0,7 C -7,4 C 30,6 km/h (5 Bft)
12.02.2018 04:00 2,2 C 90 % 999,3 hPa 0,0 l/m 24,0 km/h (4 Bft) W-SW 243 0 min 0 W/m 0,7 C -8,4 C 35,4 km/h (5 Bft)
12.02.2018 04:03 2,2 C 90 % 999,4 hPa 0,0 l/m 21,9 km/h (4 Bft) SW 225 0 min 0 W/m 0,7 C -7,6 C 33,8 km/h (5 Bft)
12.02.2018 04:06 2,2 C 90 % 999,4 hPa 0,0 l/m 23,8 km/h (4 Bft) SW 225 0 min 0 W/m 0,7 C -8,3 C 37,0 km/h (5 Bft)
12.02.2018 04:09 2,2 C 90 % 999,4 hPa 0,0 l/m 25,0 km/h (4 Bft) SW 227 0 min 0 W/m 0,7 C -8,7 C 37,0 km/h (5 Bft)
12.02.2018 04:12 2,2 C 90 % 999,4 hPa 0,0 l/m 24,7 km/h (4 Bft) SW 225 0 min 0 W/m 0,7 C -8,6 C 37,0 km/h (5 Bft)
12.02.2018 04:15 2,2 C 90 % 999,5 hPa 0,0 l/m 23,9 km/h (4 Bft) W 275 0 min 0 W/m 0,7 C -8,3 C 37,0 km/h (5 Bft)
12.02.2018 04:18 2,2 C 91 % 999,5 hPa 0,0 l/m 28,0 km/h (5 Bft) S-SW 211 0 min 0 W/m 0,9 C -9,7 C 46,7 km/h (6 Bft)
12.02.2018 04:21 2,2 C 91 % 999,5 hPa 0,0 l/m 24,5 km/h (4 Bft) S-SW 213 0 min 0 W/m 0,9 C -8,6 C 33,8 km/h (5 Bft)
12.02.2018 04:24 2,2 C 91 % 999,6 hPa 0,0 l/m 23,3 km/h (4 Bft) SW 220 0 min 0 W/m 0,9 C -8,1 C 33,8 km/h (5 Bft)
12.02.2018 04:27 2,1 C 91 % 999,5 hPa 0,0 l/m 25,2 km/h (4 Bft) W-SW 242 0 min 0 W/m 0,8 C -8,9 C 37,0 km/h (5 Bft)
12.02.2018 04:30 2,1 C 91 % 999,5 hPa 0,0 l/m 26,6 km/h (4 Bft) SW 226 0 min 0 W/m 0,8 C -9,4 C 38,6 km/h (6 Bft)
12.02.2018 04:33 2,1 C 91 % 999,5 hPa 0,0 l/m 24,2 km/h (4 Bft) SW 234 0 min 0 W/m 0,8 C -8,6 C 35,4 km/h (5 Bft)
12.02.2018 04:36 2,1 C 91 % 999,4 hPa 0,0 l/m 24,1 km/h (4 Bft) SW 234 0 min 0 W/m 0,8 C -8,6 C 37,0 km/h (5 Bft)
12.02.2018 04:39 2,1 C 91 % 999,6 hPa 0,0 l/m 23,1 km/h (4 Bft) SW 235 0 min 0 W/m 0,8 C -8,2 C 32,2 km/h (5 Bft)
12.02.2018 04:42 2,1 C 91 % 999,6 hPa 0,0 l/m 23,3 km/h (4 Bft) S-SW 210 0 min 0 W/m 0,8 C -8,3 C 32,2 km/h (5 Bft)
12.02.2018 04:45 2,1 C 91 % 999,6 hPa 0,0 l/m 23,5 km/h (4 Bft) SW 232 0 min 0 W/m 0,8 C -8,3 C 32,2 km/h (5 Bft)
12.02.2018 04:48 2,1 C 91 % 999,6 hPa 0,0 l/m 26,3 km/h (4 Bft) S 190 0 min 0 W/m 0,8 C -9,3 C 41,8 km/h (6 Bft)
12.02.2018 04:51 2,1 C 91 % 999,8 hPa 0,0 l/m 27,9 km/h (5 Bft) SW 224 0 min 0 W/m 0,8 C -9,8 C 37,0 km/h (5 Bft)
12.02.2018 04:54 2,1 C 91 % 999,8 hPa 0,0 l/m 26,8 km/h (4 Bft) SW 227 0 min 0 W/m 0,8 C -9,5 C 38,6 km/h (6 Bft)
12.02.2018 04:57 2,1 C 91 % 999,9 hPa 0,0 l/m 27,3 km/h (5 Bft) SW 234 0 min 0 W/m 0,8 C -9,6 C 41,8 km/h (6 Bft)
12.02.2018 05:00 2,1 C 91 % 999,9 hPa 0,0 l/m 22,6 km/h (4 Bft) S-SW 207 0 min 0 W/m 0,8 C -8,0 C 32,2 km/h (5 Bft)
12.02.2018 05:03 2,1 C 91 % 999,9 hPa 0,0 l/m 24,8 km/h (4 Bft) W-SW 239 0 min 0 W/m 0,8 C -8,8 C 35,4 km/h (5 Bft)
12.02.2018 05:06 2,2 C 91 % 1000,0 hPa 0,0 l/m 21,7 km/h (4 Bft) W-SW 238 0 min 0 W/m 0,9 C -7,5 C 32,2 km/h (5 Bft)
12.02.2018 05:09 2,2 C 91 % 999,9 hPa 0,0 l/m 22,1 km/h (4 Bft) SW 231 0 min 0 W/m 0,9 C -7,7 C 32,2 km/h (5 Bft)
12.02.2018 05:12 2,2 C 91 % 999,9 hPa 0,0 l/m 27,9 km/h (5 Bft) SW 236 0 min 0 W/m 0,9 C -9,7 C 40,2 km/h (6 Bft)
12.02.2018 05:15 2,3 C 91 % 999,9 hPa 0,0 l/m 23,6 km/h (4 Bft) SW 225 0 min 0 W/m 1,0 C -8,1 C 35,4 km/h (5 Bft)
12.02.2018 05:18 2,2 C 91 % 1000,1 hPa 0,0 l/m 22,8 km/h (4 Bft) W-SW 248 0 min 0 W/m 0,9 C -7,9 C 33,8 km/h (5 Bft)
12.02.2018 05:21 2,2 C 91 % 1000,1 hPa 0,0 l/m 18,9 km/h (3 Bft) SW 223 0 min 0 W/m 0,9 C -6,3 C 24,1 km/h (4 Bft)
12.02.2018 05:24 2,2 C 91 % 1000,2 hPa 0,0 l/m 20,8 km/h (4 Bft) S-SW 207 0 min 0 W/m 0,9 C -7,1 C 30,6 km/h (5 Bft)
12.02.2018 05:27 2,1 C 91 % 1000,2 hPa 0,0 l/m 22,8 km/h (4 Bft) SW 226 0 min 0 W/m 0,8 C -8,1 C 38,6 km/h (6 Bft)
12.02.2018 05:30 2,1 C 91 % 1000,2 hPa 0,0 l/m 23,0 km/h (4 Bft) S-SW 207 0 min 0 W/m 0,8 C -8,1 C 35,4 km/h (5 Bft)
12.02.2018 05:33 2,1 C 92 % 1000,2 hPa 0,0 l/m 18,6 km/h (3 Bft) W-SW 239 0 min 0 W/m 0,9 C -6,3 C 29,0 km/h (5 Bft)
12.02.2018 05:36 2,1 C 92 % 1000,2 hPa 0,0 l/m 18,2 km/h (3 Bft) W-SW 244 0 min 0 W/m 0,9 C -6,1 C 25,7 km/h (4 Bft)
12.02.2018 05:39 2,1 C 92 % 1000,2 hPa 0,0 l/m 19,2 km/h (3 Bft) SW 223 0 min 0 W/m 0,9 C -6,6 C 29,0 km/h (5 Bft)
12.02.2018 05:42 2,1 C 92 % 1000,3 hPa 0,0 l/m 21,0 km/h (4 Bft) SW 233 0 min 0 W/m 0,9 C -7,3 C 35,4 km/h (5 Bft)
12.02.2018 05:45 2,2 C 92 % 1000,3 hPa 0,0 l/m 24,0 km/h (4 Bft) W-SW 246 0 min 0 W/m 1,0 C -8,4 C 40,2 km/h (6 Bft)
12.02.2018 05:48 2,2 C 92 % 1000,3 hPa 0,0 l/m 23,4 km/h (4 Bft) SW 218 0 min 0 W/m 1,0 C -8,2 C 35,4 km/h (5 Bft)
12.02.2018 05:51 2,2 C 92 % 1000,4 hPa 0,0 l/m 20,5 km/h (4 Bft) SW 231 0 min 0 W/m 1,0 C -7,0 C 35,4 km/h (5 Bft)
12.02.2018 05:54 2,2 C 92 % 1000,5 hPa 0,0 l/m 20,6 km/h (4 Bft) W-SW 253 0 min 0 W/m 1,0 C -7,0 C 33,8 km/h (5 Bft)
12.02.2018 05:57 2,2 C 92 % 1000,4 hPa 0,0 l/m 22,2 km/h (4 Bft) S-SW 200 0 min 0 W/m 1,0 C -7,7 C 33,8 km/h (5 Bft)
12.02.2018 06:00 2,2 C 92 % 1000,4 hPa 0,0 l/m 20,1 km/h (4 Bft) S-SW 192 0 min 0 W/m 1,0 C -6,8 C 29,0 km/h (5 Bft)
12.02.2018 06:03 2,2 C 92 % 1000,4 hPa 0,0 l/m 23,0 km/h (4 Bft) SW 232 0 min 0 W/m 1,0 C -8,0 C 38,6 km/h (6 Bft)
12.02.2018 06:06 2,1 C 92 % 1000,4 hPa 0,0 l/m 21,7 km/h (4 Bft) S-SW 211 0 min 0 W/m 0,9 C -7,6 C 32,2 km/h (5 Bft)
12.02.2018 06:09 2,1 C 92 % 1000,5 hPa 0,0 l/m 19,8 km/h (3 Bft) SW 234 0 min 0 W/m 0,9 C -6,8 C 29,0 km/h (5 Bft)
12.02.2018 06:12 2,1 C 92 % 1000,4 hPa 0,0 l/m 21,6 km/h (4 Bft) SW 219 0 min 0 W/m 0,9 C -7,6 C 32,2 km/h (5 Bft)
12.02.2018 06:15 2,1 C 92 % 1000,6 hPa 0,0 l/m 19,3 km/h (3 Bft) SW 216 0 min 0 W/m 0,9 C -6,6 C 27,4 km/h (5 Bft)
12.02.2018 06:18 2,2 C 92 % 1000,9 hPa 0,0 l/m 20,3 km/h (4 Bft) W 278 0 min 0 W/m 1,0 C -6,9 C 32,2 km/h (5 Bft)
12.02.2018 06:21 2,2 C 92 % 1000,9 hPa 0,0 l/m 19,7 km/h (3 Bft) W-NW 298 0 min 0 W/m 1,0 C -6,7 C 37,0 km/h (5 Bft)
12.02.2018 06:24 2,2 C 92 % 1000,9 hPa 0,0 l/m 19,2 km/h (3 Bft) W 265 0 min 0 W/m 1,0 C -6,4 C 30,6 km/h (5 Bft)
12.02.2018 06:27 2,2 C 92 % 1000,9 hPa 0,0 l/m 16,1 km/h (3 Bft) W-SW 257 0 min 0 W/m 1,0 C -4,9 C 24,1 km/h (4 Bft)
12.02.2018 06:30 2,2 C 92 % 1001,0 hPa 0,0 l/m 10,5 km/h (2 Bft) W-SW 256 0 min 0 W/m 1,0 C -1,4 C 20,9 km/h (4 Bft)
12.02.2018 06:33 2,2 C 92 % 1001,0 hPa 0,0 l/m 12,6 km/h (3 Bft) W 270 0 min 0 W/m 1,0 C -2,9 C 19,3 km/h (3 Bft)
12.02.2018 06:36 2,2 C 92 % 1001,2 hPa 0,0 l/m 13,1 km/h (3 Bft) W 263 0 min 0 W/m 1,0 C -3,2 C 20,9 km/h (4 Bft)
12.02.2018 06:39 2,3 C 93 % 1001,3 hPa 0,0 l/m 15,5 km/h (3 Bft) W-NW 286 0 min 0 W/m 1,3 C -4,5 C 27,4 km/h (5 Bft)
12.02.2018 06:42 2,3 C 93 % 1001,3 hPa 0,0 l/m 19,1 km/h (3 Bft) W 265 0 min 0 W/m 1,3 C -6,3 C 33,8 km/h (5 Bft)
12.02.2018 06:45 2,4 C 92 % 1001,3 hPa 0,0 l/m 16,7 km/h (3 Bft) W 277 0 min 0 W/m 1,2 C -5,0 C 30,6 km/h (5 Bft)
12.02.2018 06:48 2,4 C 92 % 1001,3 hPa 0,0 l/m 16,7 km/h (3 Bft) W-NW 287 0 min 0 W/m 1,2 C -5,0 C 32,2 km/h (5 Bft)
12.02.2018 06:51 2,3 C 92 % 1001,4 hPa 0,0 l/m 18,9 km/h (3 Bft) W-NW 283 0 min 0 W/m 1,1 C -6,2 C 32,2 km/h (5 Bft)
12.02.2018 06:54 2,3 C 92 % 1001,4 hPa 0,0 l/m 15,1 km/h (3 Bft) W-NW 289 0 min 0 W/m 1,1 C -4,3 C 29,0 km/h (5 Bft)
12.02.2018 06:57 2,3 C 92 % 1001,4 hPa 0,0 l/m 16,7 km/h (3 Bft) W-NW 293 0 min 0 W/m 1,1 C -5,1 C 25,7 km/h (4 Bft)
12.02.2018 07:00 2,4 C 92 % 1001,5 hPa 0,0 l/m 13,3 km/h (3 Bft) W-SW 244 0 min 0 W/m 1,2 C -3,1 C 22,5 km/h (4 Bft)
12.02.2018 07:03 2,4 C 92 % 1001,5 hPa 0,0 l/m 14,6 km/h (3 Bft) W-SW 254 0 min 0 W/m 1,2 C -3,8 C 24,1 km/h (4 Bft)
12.02.2018 07:06 2,4 C 92 % 1001,6 hPa 0,0 l/m 15,3 km/h (3 Bft) W-NW 289 0 min 0 W/m 1,2 C -4,2 C 25,7 km/h (4 Bft)
12.02.2018 07:09 2,4 C 92 % 1001,7 hPa 0,0 l/m 16,8 km/h (3 Bft) W-SW 253 0 min 0 W/m 1,2 C -5,0 C 29,0 km/h (5 Bft)
12.02.2018 07:12 2,5 C 92 % 1001,6 hPa 0,2 l/m 14,1 km/h (3 Bft) W-SW 258 0 min 0 W/m 1,3 C -3,4 C 29,0 km/h (5 Bft)
12.02.2018 07:15 2,4 C 92 % 1001,7 hPa 0,0 l/m 18,1 km/h (3 Bft) W-NW 288 0 min 0 W/m 1,2 C -5,7 C 32,2 km/h (5 Bft)
12.02.2018 07:18 2,4 C 92 % 1001,8 hPa 0,0 l/m 18,0 km/h (3 Bft) W-SW 256 0 min 0 W/m 1,2 C -5,6 C 25,7 km/h (4 Bft)
12.02.2018 07:21 2,4 C 92 % 1001,8 hPa 0,0 l/m 15,7 km/h (3 Bft) W 263 0 min 0 W/m 1,2 C -4,5 C 27,4 km/h (5 Bft)
12.02.2018 07:24 2,4 C 92 % 1002,0 hPa 0,0 l/m 13,1 km/h (3 Bft) W-NW 302 0 min 0 W/m 1,2 C -3,0 C 24,1 km/h (4 Bft)
12.02.2018 07:27 2,3 C 92 % 1002,0 hPa 0,0 l/m 12,9 km/h (3 Bft) W 277 0 min 0 W/m 1,1 C -2,9 C 25,7 km/h (4 Bft)
12.02.2018 07:30 2,3 C 92 % 1002,1 hPa 0,2 l/m 12,6 km/h (3 Bft) W 279 0 min 0 W/m 1,1 C -2,7 C 22,5 km/h (4 Bft)
12.02.2018 07:33 2,1 C 92 % 1002,2 hPa 0,0 l/m 12,6 km/h (3 Bft) W 265 0 min 0 W/m 0,9 C -3,0 C 25,7 km/h (4 Bft)
12.02.2018 07:36 2,0 C 92 % 1002,1 hPa 0,0 l/m 14,7 km/h (3 Bft) W 259 0 min 0 W/m 0,8 C -4,4 C 24,1 km/h (4 Bft)
12.02.2018 07:39 1,9 C 92 % 1002,1 hPa 0,0 l/m 12,4 km/h (2 Bft) W 279 0 min 0 W/m 0,7 C -3,1 C 19,3 km/h (3 Bft)
12.02.2018 07:42 1,9 C 93 % 1002,2 hPa 0,0 l/m 13,1 km/h (3 Bft) W 275 0 min 0 W/m 0,9 C -3,5 C 24,1 km/h (4 Bft)
12.02.2018 07:45 1,9 C 93 % 1002,1 hPa 0,0 l/m 11,8 km/h (2 Bft) W 278 0 min 0 W/m 0,9 C -2,7 C 22,5 km/h (4 Bft)
12.02.2018 07:48 1,9 C 93 % 1002,1 hPa 0,0 l/m 12,4 km/h (2 Bft) W 271 0 min 0 W/m 0,9 C -3,1 C 20,9 km/h (4 Bft)
12.02.2018 07:51 1,9 C 93 % 1002,2 hPa 0,0 l/m 9,2 km/h (2 Bft) W-SW 251 0 min 0 W/m 0,9 C -0,7 C 19,3 km/h (3 Bft)
12.02.2018 07:54 2,0 C 93 % 1002,2 hPa 0,0 l/m 13,2 km/h (3 Bft) W 261 0 min 0 W/m 1,0 C -3,5 C 20,9 km/h (4 Bft)
12.02.2018 07:57 2,1 C 93 % 1002,3 hPa 0,0 l/m 17,1 km/h (3 Bft) S-SW 213 0 min 0 W/m 1,1 C -5,6 C 27,4 km/h (5 Bft)
12.02.2018 08:00 2,1 C 93 % 1002,2 hPa 0,0 l/m 17,1 km/h (3 Bft) SW 232 0 min 0 W/m 1,1 C -5,6 C 22,5 km/h (4 Bft)
12.02.2018 08:03 2,1 C 93 % 1002,2 hPa 0,0 l/m 19,1 km/h (3 Bft) SW 223 0 min 0 W/m 1,1 C -6,5 C 29,0 km/h (5 Bft)
12.02.2018 08:06 2,0 C 93 % 1002,1 hPa 0,0 l/m 17,6 km/h (3 Bft) S-SW 194 0 min 0 W/m 1,0 C -5,9 C 25,7 km/h (4 Bft)
12.02.2018 08:09 1,9 C 93 % 1002,1 hPa 0,0 l/m 14,1 km/h (3 Bft) S-SW 211 0 min 5 W/m 0,9 C -4,2 C 22,5 km/h (4 Bft)
12.02.2018 08:12 1,8 C 93 % 1002,1 hPa 0,0 l/m 13,2 km/h (3 Bft) W-SW 242 0 min 7 W/m 0,8 C -3,7 C 19,3 km/h (3 Bft)
12.02.2018 08:15 1,8 C 93 % 1002,2 hPa 0,0 l/m 12,6 km/h (3 Bft) W-SW 242 0 min 5 W/m 0,8 C -3,3 C 22,5 km/h (4 Bft)
12.02.2018 08:18 1,8 C 94 % 1002,3 hPa 0,0 l/m 13,6 km/h (3 Bft) S-SW 206 0 min 0 W/m 0,9 C -4,0 C 25,7 km/h (4 Bft)
12.02.2018 08:21 1,9 C 94 % 1002,5 hPa 0,0 l/m 20,5 km/h (4 Bft) W-NW 288 0 min 0 W/m 1,0 C -7,4 C 30,6 km/h (5 Bft)
12.02.2018 08:24 2,1 C 93 % 1002,5 hPa 0,0 l/m 14,9 km/h (3 Bft) W 259 0 min 5 W/m 1,1 C -4,4 C 32,2 km/h (5 Bft)
12.02.2018 08:27 2,1 C 93 % 1002,5 hPa 0,0 l/m 12,8 km/h (3 Bft) SW 217 0 min 9 W/m 1,1 C -3,1 C 19,3 km/h (3 Bft)
12.02.2018 08:30 2,1 C 93 % 1002,5 hPa 0,0 l/m 17,4 km/h (3 Bft) W-SW 253 0 min 9 W/m 1,1 C -5,7 C 24,1 km/h (4 Bft)
12.02.2018 08:33 2,0 C 93 % 1002,5 hPa 0,0 l/m 14,3 km/h (3 Bft) SW 235 0 min 9 W/m 1,0 C -4,2 C 22,5 km/h (4 Bft)
12.02.2018 08:36 2,1 C 93 % 1002,4 hPa 0,0 l/m 13,4 km/h (3 Bft) S-SW 209 0 min 9 W/m 1,1 C -3,5 C 24,1 km/h (4 Bft)
12.02.2018 08:39 2,1 C 92 % 1002,5 hPa 0,0 l/m 14,3 km/h (3 Bft) W-SW 241 0 min 0 W/m 0,9 C -4,0 C 24,1 km/h (4 Bft)
12.02.2018 08:42 2,1 C 92 % 1002,9 hPa 0,0 l/m 18,3 km/h (3 Bft) W-SW 237 0 min 0 W/m 0,9 C -6,1 C 25,7 km/h (4 Bft)
12.02.2018 08:45 2,1 C 92 % 1003,0 hPa 0,0 l/m 8,7 km/h (2 Bft) W 272 0 min 5 W/m 0,9 C -0,1 C 17,7 km/h (3 Bft)
12.02.2018 08:48 2,1 C 92 % 1002,9 hPa 0,0 l/m 7,6 km/h (2 Bft) W-NW 284 0 min 9 W/m 0,9 C 0,9 C 14,5 km/h (3 Bft)
12.02.2018 08:51 2,1 C 92 % 1003,0 hPa 0,0 l/m 5,5 km/h (2 Bft) W-NW 294 0 min 11 W/m 0,9 C 2,1 C 14,5 km/h (3 Bft)
12.02.2018 08:54 2,1 C 92 % 1003,1 hPa 0,0 l/m 5,0 km/h (1 Bft) W 262 0 min 12 W/m 0,9 C 2,1 C 12,9 km/h (3 Bft)
12.02.2018 08:57 2,1 C 92 % 1003,1 hPa 0,0 l/m 3,5 km/h (1 Bft) W-NW 299 0 min 12 W/m 0,9 C 2,1 C 6,4 km/h (2 Bft)
12.02.2018 09:00 2,1 C 92 % 1003,1 hPa 0,0 l/m 4,6 km/h (1 Bft) W 260 0 min 14 W/m 0,9 C 2,1 C 9,7 km/h (2 Bft)
12.02.2018 09:03 2,1 C 92 % 1003,1 hPa 0,0 l/m 7,1 km/h (2 Bft) W 269 0 min 18 W/m 0,9 C 1,4 C 12,9 km/h (3 Bft)
12.02.2018 09:06 2,1 C 92 % 1003,1 hPa 0,0 l/m 7,9 km/h (2 Bft) W-SW 247 0 min 18 W/m 0,9 C 0,7 C 16,1 km/h (3 Bft)
12.02.2018 09:09 2,1 C 92 % 1003,1 hPa 0,0 l/m 6,7 km/h (2 Bft) W 268 0 min 14 W/m 0,9 C 1,8 C 14,5 km/h (3 Bft)
12.02.2018 09:12 2,1 C 92 % 1003,4 hPa 0,0 l/m 12,8 km/h (3 Bft) W-SW 252 0 min 7 W/m 0,9 C -3,1 C 22,5 km/h (4 Bft)
12.02.2018 09:15 2,3 C 92 % 1003,5 hPa 0,2 l/m 17,7 km/h (3 Bft) W 281 0 min 7 W/m 1,1 C -5,6 C 41,8 km/h (6 Bft)
12.02.2018 09:18 2,4 C 92 % 1003,4 hPa 0,0 l/m 14,7 km/h (3 Bft) W 278 0 min 9 W/m 1,2 C -3,9 C 27,4 km/h (5 Bft)
12.02.2018 09:21 2,4 C 92 % 1003,4 hPa 0,0 l/m 11,6 km/h (2 Bft) W 263 0 min 11 W/m 1,2 C -2,0 C 24,1 km/h (4 Bft)
12.02.2018 09:24 2,5 C 92 % 1003,5 hPa 0,0 l/m 13,9 km/h (3 Bft) W-NW 300 0 min 16 W/m 1,3 C -3,3 C 24,1 km/h (4 Bft)
12.02.2018 09:27 2,6 C 91 % 1003,6 hPa 0,0 l/m 13,8 km/h (3 Bft) W 278 0 min 21 W/m 1,3 C -3,1 C 22,5 km/h (4 Bft)
12.02.2018 09:30 2,7 C 91 % 1003,6 hPa 0,0 l/m 13,7 km/h (3 Bft) W 263 0 min 19 W/m 1,4 C -3,0 C 22,5 km/h (4 Bft)
12.02.2018 09:33 2,7 C 91 % 1003,6 hPa 0,0 l/m 11,7 km/h (2 Bft) W 261 0 min 32 W/m 1,4 C -1,7 C 20,9 km/h (4 Bft)
12.02.2018 09:36 2,8 C 91 % 1003,7 hPa 0,0 l/m 12,5 km/h (2 Bft) W 269 0 min 44 W/m 1,5 C -2,1 C 19,3 km/h (3 Bft)
12.02.2018 09:39 2,9 C 91 % 1003,7 hPa 0,2 l/m 9,3 km/h (2 Bft) SW 235 0 min 54 W/m 1,6 C 0,3 C 16,1 km/h (3 Bft)
12.02.2018 09:42 3,0 C 91 % 1003,7 hPa 0,0 l/m 8,7 km/h (2 Bft) W-SW 257 0 min 63 W/m 1,7 C 0,9 C 16,1 km/h (3 Bft)
12.02.2018 09:45 3,2 C 91 % 1003,7 hPa 0,0 l/m 13,6 km/h (3 Bft) SW 227 0 min 76 W/m 1,9 C -2,3 C 22,5 km/h (4 Bft)
12.02.2018 09:48 3,3 C 90 % 1003,8 hPa 0,0 l/m 14,5 km/h (3 Bft) SW 230 0 min 90 W/m 1,8 C -2,7 C 27,4 km/h (5 Bft)
12.02.2018 09:51 3,4 C 90 % 1003,8 hPa 0,0 l/m 13,2 km/h (3 Bft) W 265 0 min 100 W/m 1,9 C -1,8 C 20,9 km/h (4 Bft)
12.02.2018 09:54 3,6 C 89 % 1003,8 hPa 0,0 l/m 14,7 km/h (3 Bft) W 259 0 min 111 W/m 2,0 C -2,5 C 25,7 km/h (4 Bft)
12.02.2018 09:57 3,6 C 89 % 1003,8 hPa 0,0 l/m 17,0 km/h (3 Bft) W-SW 250 0 min 114 W/m 2,0 C -3,6 C 25,7 km/h (4 Bft)
12.02.2018 10:00 3,7 C 88 % 1003,9 hPa 0,0 l/m 15,1 km/h (3 Bft) SW 234 0 min 116 W/m 1,9 C -2,6 C 24,1 km/h (4 Bft)
12.02.2018 10:03 3,8 C 87 % 1003,9 hPa 0,0 l/m 14,7 km/h (3 Bft) W 265 0 min 116 W/m 1,8 C -2,2 C 27,4 km/h (5 Bft)
12.02.2018 10:06 3,8 C 87 % 1003,9 hPa 0,0 l/m 16,3 km/h (3 Bft) SW 236 0 min 114 W/m 1,8 C -3,0 C 27,4 km/h (5 Bft)
12.02.2018 10:09 3,9 C 87 % 1004,1 hPa 0,0 l/m 17,0 km/h (3 Bft) W-SW 241 0 min 114 W/m 1,9 C -3,3 C 25,7 km/h (4 Bft)
12.02.2018 10:12 3,9 C 86 % 1004,0 hPa 0,0 l/m 15,3 km/h (3 Bft) SW 231 0 min 118 W/m 1,8 C -2,4 C 25,7 km/h (4 Bft)
12.02.2018 10:15 4,0 C 86 % 1004,0 hPa 0,0 l/m 13,9 km/h (3 Bft) W-SW 256 0 min 120 W/m 1,9 C -1,5 C 24,1 km/h (4 Bft)
12.02.2018 10:18 4,0 C 87 % 1004,1 hPa 0,0 l/m 13,9 km/h (3 Bft) W-NW 282 0 min 139 W/m 2,0 C -1,5 C 22,5 km/h (4 Bft)
12.02.2018 10:21 4,1 C 86 % 1004,2 hPa 0,0 l/m 11,9 km/h (2 Bft) W-SW 247 0 min 113 W/m 2,0 C -0,2 C 20,9 km/h (4 Bft)
12.02.2018 10:24 3,8 C 86 % 1004,3 hPa 0,0 l/m 14,7 km/h (3 Bft) S-SW 210 0 min 127 W/m 1,7 C -2,2 C 22,5 km/h (4 Bft)
12.02.2018 10:27 3,6 C 87 % 1004,2 hPa 0,0 l/m 15,4 km/h (3 Bft) S-SW 196 0 min 146 W/m 1,6 C -2,8 C 24,1 km/h (4 Bft)
12.02.2018 10:30 3,4 C 88 % 1004,3 hPa 0,0 l/m 12,7 km/h (3 Bft) W-SW 244 0 min 70 W/m 1,6 C -1,5 C 19,3 km/h (3 Bft)
12.02.2018 10:33 3,5 C 88 % 1004,4 hPa 0,0 l/m 12,4 km/h (2 Bft) W-SW 248 0 min 67 W/m 1,7 C -1,2 C 19,3 km/h (3 Bft)
12.02.2018 10:36 3,5 C 88 % 1004,5 hPa 0,0 l/m 10,7 km/h (2 Bft) W-SW 239 0 min 67 W/m 1,7 C -0,1 C 19,3 km/h (3 Bft)
12.02.2018 10:39 3,4 C 88 % 1004,6 hPa 0,0 l/m 13,0 km/h (3 Bft) S-SW 209 0 min 79 W/m 1,6 C -1,7 C 19,3 km/h (3 Bft)
12.02.2018 10:42 3,4 C 88 % 1004,6 hPa 0,0 l/m 13,2 km/h (3 Bft) SW 217 0 min 98 W/m 1,6 C -1,8 C 24,1 km/h (4 Bft)
12.02.2018 10:45 3,3 C 89 % 1004,7 hPa 0,0 l/m 12,9 km/h (3 Bft) S-SW 213 0 min 97 W/m 1,7 C -1,8 C 22,5 km/h (4 Bft)
12.02.2018 10:48 3,3 C 89 % 1004,7 hPa 0,0 l/m 10,9 km/h (2 Bft) SW 229 0 min 97 W/m 1,7 C -0,5 C 17,7 km/h (3 Bft)
12.02.2018 10:51 3,3 C 90 % 1004,7 hPa 0,0 l/m 10,4 km/h (2 Bft) W 271 0 min 107 W/m 1,8 C -0,1 C 16,1 km/h (3 Bft)
12.02.2018 10:54 3,3 C 90 % 1004,8 hPa 0,0 l/m 10,8 km/h (2 Bft) W-SW 240 0 min 125 W/m 1,8 C -0,4 C 16,1 km/h (3 Bft)
12.02.2018 10:57 3,3 C 90 % 1004,8 hPa 0,0 l/m 8,3 km/h (2 Bft) S-SW 197 0 min 128 W/m 1,8 C 1,6 C 14,5 km/h (3 Bft)
12.02.2018 11:00 3,4 C 90 % 1004,8 hPa 0,0 l/m 12,3 km/h (2 Bft) W 261 0 min 128 W/m 1,9 C -1,3 C 20,9 km/h (4 Bft)
12.02.2018 11:03 3,6 C 89 % 1004,9 hPa 0,0 l/m 15,7 km/h (3 Bft) W 268 0 min 120 W/m 2,0 C -3,0 C 22,5 km/h (4 Bft)
12.02.2018 11:06 3,8 C 88 % 1004,9 hPa 0,0 l/m 14,4 km/h (3 Bft) W-SW 237 0 min 97 W/m 2,0 C -2,1 C 22,5 km/h (4 Bft)
12.02.2018 11:09 3,9 C 86 % 1005,0 hPa 0,0 l/m 13,7 km/h (3 Bft) W-SW 242 0 min 98 W/m 1,8 C -1,5 C 20,9 km/h (4 Bft)
12.02.2018 11:12 4,0 C 85 % 1005,0 hPa 0,0 l/m 13,5 km/h (3 Bft) W-SW 240 0 min 97 W/m 1,7 C -1,3 C 20,9 km/h (4 Bft)
12.02.2018 11:15 4,1 C 85 % 1005,0 hPa 0,0 l/m 13,4 km/h (3 Bft) W-SW 238 0 min 98 W/m 1,8 C -1,1 C 29,0 km/h (5 Bft)
12.02.2018 11:18 4,1 C 84 % 1005,0 hPa 0,0 l/m 13,2 km/h (3 Bft) W 273 0 min 105 W/m 1,6 C -1,0 C 24,1 km/h (4 Bft)
12.02.2018 11:21 4,2 C 84 % 1005,1 hPa 0,0 l/m 13,2 km/h (3 Bft) W-NW 286 0 min 116 W/m 1,7 C -0,9 C 22,5 km/h (4 Bft)
12.02.2018 11:24 4,2 C 84 % 1005,2 hPa 0,0 l/m 14,1 km/h (3 Bft) SW 232 0 min 113 W/m 1,7 C -1,4 C 22,5 km/h (4 Bft)
12.02.2018 11:27 4,2 C 84 % 1005,3 hPa 0,0 l/m 12,7 km/h (3 Bft) SW 225 0 min 100 W/m 1,7 C -0,6 C 22,5 km/h (4 Bft)
12.02.2018 11:30 4,2 C 84 % 1005,3 hPa 0,0 l/m 13,9 km/h (3 Bft) W 261 0 min 83 W/m 1,7 C -1,3 C 24,1 km/h (4 Bft)
12.02.2018 11:33 4,1 C 84 % 1005,4 hPa 0,0 l/m 11,7 km/h (2 Bft) W 264 0 min 70 W/m 1,6 C -0,1 C 19,3 km/h (3 Bft)
12.02.2018 11:36 4,1 C 85 % 1005,4 hPa 0,0 l/m 14,1 km/h (3 Bft) W-SW 242 0 min 65 W/m 1,8 C -1,5 C 22,5 km/h (4 Bft)
12.02.2018 11:39 4,1 C 85 % 1005,5 hPa 0,0 l/m 11,5 km/h (2 Bft) SW 224 0 min 72 W/m 1,8 C 0,0 C 19,3 km/h (3 Bft)
12.02.2018 11:42 4,1 C 85 % 1005,6 hPa 0,0 l/m 10,9 km/h (2 Bft) SW 231 0 min 109 W/m 1,8 C 0,4 C 20,9 km/h (4 Bft)
12.02.2018 11:45 3,9 C 85 % 1005,6 hPa 0,0 l/m 12,8 km/h (3 Bft) SW 227 0 min 105 W/m 1,6 C -1,0 C 20,9 km/h (4 Bft)
12.02.2018 11:48 3,8 C 86 % 1005,7 hPa 0,0 l/m 8,8 km/h (2 Bft) SW 232 0 min 151 W/m 1,7 C 1,7 C 17,7 km/h (3 Bft)
12.02.2018 11:51 3,8 C 87 % 1005,7 hPa 0,0 l/m 9,6 km/h (2 Bft) W-SW 248 0 min 172 W/m 1,8 C 1,0 C 16,1 km/h (3 Bft)
12.02.2018 11:54 3,8 C 88 % 1005,7 hPa 0,0 l/m 11,4 km/h (2 Bft) W-NW 297 3 min 211 W/m 2,0 C -0,2 C 17,7 km/h (3 Bft)
12.02.2018 11:57 3,8 C 88 % 1005,8 hPa 0,0 l/m 8,5 km/h (2 Bft) W-SW 243 0 min 105 W/m 2,0 C 1,9 C 16,1 km/h (3 Bft)
12.02.2018 12:00 3,8 C 88 % 1005,8 hPa 0,0 l/m 11,3 km/h (2 Bft) W 263 0 min 97 W/m 2,0 C -0,2 C 19,3 km/h (3 Bft)
12.02.2018 12:03 3,9 C 87 % 1005,8 hPa 0,0 l/m 11,9 km/h (2 Bft) W 266 3 min 294 W/m 1,9 C -0,4 C 20,9 km/h (4 Bft)
12.02.2018 12:06 4,2 C 86 % 1005,9 hPa 0,0 l/m 12,8 km/h (3 Bft) W-SW 237 3 min 316 W/m 2,1 C -0,7 C 22,5 km/h (4 Bft)
12.02.2018 12:09 4,5 C 84 % 1005,9 hPa 0,0 l/m 14,9 km/h (3 Bft) W-SW 246 3 min 299 W/m 2,0 C -1,5 C 25,7 km/h (4 Bft)
12.02.2018 12:12 4,7 C 83 % 1006,0 hPa 0,0 l/m 14,1 km/h (3 Bft) W-SW 249 0 min 186 W/m 2,1 C -0,8 C 20,9 km/h (4 Bft)
12.02.2018 12:15 4,6 C 83 % 1005,9 hPa 0,0 l/m 11,9 km/h (2 Bft) SW 236 0 min 158 W/m 2,0 C 0,4 C 17,7 km/h (3 Bft)
12.02.2018 12:18 4,7 C 83 % 1005,9 hPa 0,0 l/m 12,4 km/h (2 Bft) W 278 3 min 283 W/m 2,1 C 0,2 C 19,3 km/h (3 Bft)
12.02.2018 12:21 4,8 C 83 % 1006,0 hPa 0,0 l/m 14,2 km/h (3 Bft) W 267 3 min 348 W/m 2,2 C -0,7 C 20,9 km/h (4 Bft)
12.02.2018 12:24 5,0 C 82 % 1005,9 hPa 0,0 l/m 15,4 km/h (3 Bft) W-SW 246 3 min 381 W/m 2,2 C -1,1 C 22,5 km/h (4 Bft)
12.02.2018 12:27 5,2 C 83 % 1006,0 hPa 0,0 l/m 11,1 km/h (2 Bft) W-SW 238 3 min 410 W/m 2,6 C 1,6 C 17,7 km/h (3 Bft)
12.02.2018 12:30 5,2 C 83 % 1005,9 hPa 0,0 l/m 9,6 km/h (2 Bft) W-SW 241 0 min 142 W/m 2,6 C 2,6 C 16,1 km/h (3 Bft)
12.02.2018 12:33 5,0 C 82 % 1006,0 hPa 0,0 l/m 11,4 km/h (2 Bft) W-SW 258 0 min 134 W/m 2,2 C 1,1 C 22,5 km/h (4 Bft)
12.02.2018 12:36 4,9 C 83 % 1006,0 hPa 0,0 l/m 12,2 km/h (2 Bft) W-SW 258 3 min 329 W/m 2,3 C 0,5 C 19,3 km/h (3 Bft)
12.02.2018 12:39 5,3 C 82 % 1006,1 hPa 0,0 l/m 16,3 km/h (3 Bft) W-SW 244 3 min 489 W/m 2,5 C -1,2 C 29,0 km/h (5 Bft)
12.02.2018 12:42 5,3 C 80 % 1006,2 hPa 0,0 l/m 14,8 km/h (3 Bft) SW 219 0 min 141 W/m 2,1 C -0,5 C 24,1 km/h (4 Bft)
12.02.2018 12:45 5,1 C 79 % 1006,2 hPa 0,0 l/m 19,5 km/h (3 Bft) S-SW 199 0 min 84 W/m 1,8 C -2,8 C 33,8 km/h (5 Bft)
12.02.2018 12:48 4,8 C 78 % 1006,2 hPa 0,0 l/m 16,7 km/h (3 Bft) W-SW 256 0 min 97 W/m 1,3 C -2,0 C 29,0 km/h (5 Bft)
12.02.2018 12:51 4,8 C 77 % 1006,2 hPa 0,0 l/m 17,3 km/h (3 Bft) W 269 0 min 121 W/m 1,1 C -2,3 C 27,4 km/h (5 Bft)
12.02.2018 12:54 4,7 C 76 % 1006,3 hPa 0,0 l/m 16,6 km/h (3 Bft) W 279 0 min 155 W/m 0,8 C -2,1 C 29,0 km/h (5 Bft)
12.02.2018 12:57 4,6 C 76 % 1006,4 hPa 0,0 l/m 17,1 km/h (3 Bft) W-SW 239 0 min 104 W/m 0,7 C -2,4 C 27,4 km/h (5 Bft)
12.02.2018 13:00 4,6 C 76 % 1006,4 hPa 0,0 l/m 13,9 km/h (3 Bft) W-SW 256 0 min 144 W/m 0,7 C -0,8 C 20,9 km/h (4 Bft)
12.02.2018 13:03 4,7 C 78 % 1006,4 hPa 0,0 l/m 15,5 km/h (3 Bft) W 262 0 min 206 W/m 1,2 C -1,5 C 29,0 km/h (5 Bft)
12.02.2018 13:06 4,7 C 79 % 1006,5 hPa 0,0 l/m 13,1 km/h (3 Bft) SW 219 0 min 146 W/m 1,4 C -0,2 C 24,1 km/h (4 Bft)
12.02.2018 13:09 4,8 C 80 % 1006,5 hPa 0,0 l/m 11,8 km/h (2 Bft) W-SW 242 0 min 70 W/m 1,6 C 0,7 C 24,1 km/h (4 Bft)
12.02.2018 13:12 4,6 C 81 % 1006,5 hPa 0,0 l/m 13,3 km/h (3 Bft) SW 234 0 min 54 W/m 1,6 C -0,5 C 22,5 km/h (4 Bft)
12.02.2018 13:15 4,3 C 82 % 1006,5 hPa 0,0 l/m 10,4 km/h (2 Bft) SW 231 0 min 51 W/m 1,5 C 1,0 C 17,7 km/h (3 Bft)
12.02.2018 13:18 4,0 C 83 % 1006,6 hPa 0,0 l/m 17,2 km/h (3 Bft) W-SW 242 0 min 51 W/m 1,4 C -3,2 C 30,6 km/h (5 Bft)
12.02.2018 13:21 3,8 C 84 % 1006,6 hPa 0,0 l/m 12,4 km/h (2 Bft) W-SW 242 0 min 60 W/m 1,4 C -0,9 C 20,9 km/h (4 Bft)
12.02.2018 13:24 3,7 C 85 % 1006,6 hPa 0,0 l/m 12,2 km/h (2 Bft) W-SW 257 0 min 74 W/m 1,4 C -0,9 C 20,9 km/h (4 Bft)
12.02.2018 13:27 3,6 C 85 % 1006,6 hPa 0,0 l/m 10,0 km/h (2 Bft) SW 219 0 min 97 W/m 1,3 C 0,5 C 22,5 km/h (4 Bft)
12.02.2018 13:30 3,5 C 86 % 1006,6 hPa 0,0 l/m 12,8 km/h (3 Bft) W 273 0 min 114 W/m 1,4 C -1,5 C 22,5 km/h (4 Bft)
12.02.2018 13:33 3,4 C 86 % 1006,6 hPa 0,0 l/m 11,2 km/h (2 Bft) W 281 0 min 149 W/m 1,3 C -0,6 C 20,9 km/h (4 Bft)
12.02.2018 13:36 3,5 C 85 % 1006,6 hPa 0,0 l/m 10,2 km/h (2 Bft) W-SW 237 0 min 178 W/m 1,2 C 0,3 C 22,5 km/h (4 Bft)
12.02.2018 13:39 3,6 C 86 % 1006,6 hPa 0,0 l/m 9,1 km/h (2 Bft) W-SW 244 3 min 221 W/m 1,5 C 1,2 C 17,7 km/h (3 Bft)
12.02.2018 13:42 3,8 C 85 % 1006,6 hPa 0,0 l/m 13,5 km/h (3 Bft) SW 217 3 min 241 W/m 1,5 C -1,5 C 20,9 km/h (4 Bft)
12.02.2018 13:45 4,0 C 85 % 1006,6 hPa 0,0 l/m 12,0 km/h (2 Bft) SW 217 3 min 225 W/m 1,7 C -0,4 C 17,7 km/h (3 Bft)
12.02.2018 13:48 4,1 C 84 % 1006,7 hPa 0,0 l/m 15,9 km/h (3 Bft) SW 215 0 min 195 W/m 1,6 C -2,5 C 29,0 km/h (5 Bft)
12.02.2018 13:51 4,3 C 83 % 1006,7 hPa 0,0 l/m 14,4 km/h (3 Bft) W 263 0 min 151 W/m 1,7 C -1,5 C 25,7 km/h (4 Bft)
12.02.2018 13:54 4,3 C 82 % 1006,7 hPa 0,0 l/m 13,4 km/h (3 Bft) W-NW 283 0 min 125 W/m 1,5 C -0,9 C 25,7 km/h (4 Bft)
12.02.2018 13:57 4,3 C 82 % 1006,7 hPa 0,0 l/m 14,7 km/h (3 Bft) W-SW 250 0 min 93 W/m 1,5 C -1,6 C 22,5 km/h (4 Bft)
12.02.2018 14:00 4,2 C 82 % 1006,8 hPa 0,0 l/m 12,2 km/h (2 Bft) SW 223 0 min 58 W/m 1,4 C -0,3 C 24,1 km/h (4 Bft)
12.02.2018 14:03 4,0 C 83 % 1006,7 hPa 0,0 l/m 14,1 km/h (3 Bft) SW 227 0 min 47 W/m 1,4 C -1,6 C 22,5 km/h (4 Bft)
12.02.2018 14:06 3,8 C 83 % 1006,7 hPa 0,0 l/m 13,9 km/h (3 Bft) W-SW 254 0 min 47 W/m 1,2 C -1,8 C 22,5 km/h (4 Bft)
12.02.2018 14:09 3,5 C 83 % 1006,7 hPa 0,0 l/m 17,6 km/h (3 Bft) W-SW 238 0 min 47 W/m 0,9 C -4,0 C 29,0 km/h (5 Bft)
12.02.2018 14:12 3,2 C 83 % 1006,8 hPa 0,0 l/m 11,6 km/h (2 Bft) SW 221 0 min 49 W/m 0,6 C -1,1 C 24,1 km/h (4 Bft)
12.02.2018 14:15 3,1 C 83 % 1006,9 hPa 0,0 l/m 9,8 km/h (2 Bft) S-SW 207 0 min 54 W/m 0,5 C 0,1 C 19,3 km/h (3 Bft)
12.02.2018 14:18 3,1 C 84 % 1006,9 hPa 0,0 l/m 12,2 km/h (2 Bft) SW 232 0 min 35 W/m 0,7 C -1,6 C 19,3 km/h (3 Bft)
12.02.2018 14:21 3,1 C 84 % 1007,1 hPa 0,0 l/m 12,1 km/h (2 Bft) W-SW 240 0 min 47 W/m 0,7 C -1,5 C 22,5 km/h (4 Bft)
12.02.2018 14:24 3,2 C 85 % 1007,2 hPa 0,0 l/m 18,0 km/h (3 Bft) S-SW 213 0 min 49 W/m 0,9 C -4,6 C 33,8 km/h (5 Bft)
12.02.2018 14:27 3,1 C 85 % 1007,5 hPa 0,0 l/m 23,6 km/h (4 Bft) W-NW 288 0 min 33 W/m 0,8 C -7,0 C 43,5 km/h (6 Bft)
12.02.2018 14:30 2,7 C 86 % 1007,5 hPa 0,0 l/m 20,6 km/h (4 Bft) S-SW 213 0 min 21 W/m 0,6 C -6,4 C 41,8 km/h (6 Bft)
12.02.2018 14:33 2,3 C 87 % 1007,6 hPa 0,0 l/m 18,0 km/h (3 Bft) W 261 0 min 11 W/m 0,4 C -5,7 C 29,0 km/h (5 Bft)
12.02.2018 14:36 2,1 C 88 % 1007,6 hPa 0,0 l/m 16,8 km/h (3 Bft) W 265 0 min 5 W/m 0,3 C -5,4 C 29,0 km/h (5 Bft)
12.02.2018 14:39 1,8 C 89 % 1007,6 hPa 0,0 l/m 15,4 km/h (3 Bft) W-SW 246 0 min 0 W/m 0,2 C -5,0 C 22,5 km/h (4 Bft)
12.02.2018 14:42 1,8 C 90 % 1007,6 hPa 0,0 l/m 13,6 km/h (3 Bft) W 273 0 min 5 W/m 0,3 C -4,0 C 17,7 km/h (3 Bft)
12.02.2018 14:45 1,7 C 91 % 1007,6 hPa 0,0 l/m 10,2 km/h (2 Bft) W-SW 257 0 min 5 W/m 0,4 C -1,7 C 16,1 km/h (3 Bft)
12.02.2018 14:48 1,6 C 91 % 1007,7 hPa 0,0 l/m 9,0 km/h (2 Bft) W 265 0 min 14 W/m 0,3 C -0,9 C 14,5 km/h (3 Bft)
12.02.2018 14:51 1,6 C 91 % 1007,6 hPa 0,0 l/m 8,7 km/h (2 Bft) SW 222 0 min 33 W/m 0,3 C -0,6 C 16,1 km/h (3 Bft)
12.02.2018 14:54 1,6 C 92 % 1007,7 hPa 0,0 l/m 8,6 km/h (2 Bft) SW 229 0 min 39 W/m 0,4 C -0,5 C 14,5 km/h (3 Bft)
12.02.2018 14:57 1,7 C 92 % 1007,6 hPa 0,0 l/m 6,7 km/h (2 Bft) S-SW 209 0 min 35 W/m 0,5 C 1,4 C 12,9 km/h (3 Bft)
12.02.2018 15:00 1,6 C 92 % 1007,6 hPa 0,0 l/m 7,0 km/h (2 Bft) W-SW 240 0 min 21 W/m 0,4 C 1,0 C 11,3 km/h (2 Bft)
12.02.2018 15:03 1,6 C 92 % 1007,6 hPa 0,0 l/m 7,6 km/h (2 Bft) W-SW 240 0 min 16 W/m 0,4 C 0,4 C 11,3 km/h (2 Bft)
12.02.2018 15:06 1,6 C 92 % 1007,7 hPa 0,0 l/m 5,3 km/h (1 Bft) W 266 0 min 11 W/m 0,4 C 1,6 C 9,7 km/h (2 Bft)
12.02.2018 15:09 1,6 C 93 % 1007,7 hPa 0,0 l/m 6,7 km/h (2 Bft) SW 222 0 min 9 W/m 0,6 C 1,3 C 14,5 km/h (3 Bft)
12.02.2018 15:12 1,6 C 93 % 1007,7 hPa 0,0 l/m 6,9 km/h (2 Bft) SW 217 0 min 14 W/m 0,6 C 1,1 C 12,9 km/h (3 Bft)
12.02.2018 15:15 1,5 C 93 % 1007,9 hPa 0,0 l/m 8,9 km/h (2 Bft) W-SW 248 0 min 18 W/m 0,5 C -0,9 C 16,1 km/h (3 Bft)
12.02.2018 15:18 1,6 C 93 % 1007,8 hPa 0,0 l/m 9,3 km/h (2 Bft) SW 227 0 min 19 W/m 0,6 C -1,1 C 17,7 km/h (3 Bft)
12.02.2018 15:21 1,7 C 93 % 1007,8 hPa 0,0 l/m 8,4 km/h (2 Bft) W-SW 238 0 min 21 W/m 0,7 C -0,2 C 17,7 km/h (3 Bft)
12.02.2018 15:24 1,7 C 93 % 1007,7 hPa 0,0 l/m 7,4 km/h (2 Bft) SW 226 0 min 19 W/m 0,7 C 0,7 C 16,1 km/h (3 Bft)
12.02.2018 15:27 1,8 C 93 % 1007,7 hPa 0,0 l/m 8,7 km/h (2 Bft) SW 225 0 min 18 W/m 0,8 C -0,4 C 14,5 km/h (3 Bft)
12.02.2018 15:30 1,8 C 93 % 1007,7 hPa 0,0 l/m 11,6 km/h (2 Bft) W-SW 241 0 min 14 W/m 0,8 C -2,7 C 17,7 km/h (3 Bft)
12.02.2018 15:33 1,8 C 93 % 1007,7 hPa 0,0 l/m 13,9 km/h (3 Bft) SW 236 0 min 14 W/m 0,8 C -4,2 C 20,9 km/h (4 Bft)
12.02.2018 15:36 1,8 C 93 % 1007,7 hPa 0,0 l/m 12,4 km/h (2 Bft) SW 225 0 min 14 W/m 0,8 C -3,2 C 17,7 km/h (3 Bft)
12.02.2018 15:39 1,8 C 92 % 1007,7 hPa 0,0 l/m 13,0 km/h (3 Bft) SW 215 0 min 14 W/m 0,6 C -3,6 C 20,9 km/h (4 Bft)
12.02.2018 15:42 1,8 C 92 % 1007,7 hPa 0,0 l/m 14,6 km/h (3 Bft) SW 214 0 min 18 W/m 0,6 C -4,6 C 25,7 km/h (4 Bft)
12.02.2018 15:45 1,9 C 92 % 1007,7 hPa 0,0 l/m 16,1 km/h (3 Bft) SW 223 0 min 21 W/m 0,7 C -5,3 C 22,5 km/h (4 Bft)
12.02.2018 15:48 2,1 C 91 % 1007,6 hPa 0,0 l/m 13,5 km/h (3 Bft) W-SW 246 0 min 32 W/m 0,8 C -3,6 C 25,7 km/h (4 Bft)
12.02.2018 15:51 2,1 C 90 % 1007,6 hPa 0,2 l/m 11,3 km/h (2 Bft) S-SW 211 0 min 35 W/m 0,6 C -2,1 C 20,9 km/h (4 Bft)
12.02.2018 15:54 2,2 C 90 % 1007,6 hPa 0,0 l/m 9,3 km/h (2 Bft) W-SW 244 0 min 44 W/m 0,7 C -0,5 C 14,5 km/h (3 Bft)
12.02.2018 15:57 2,3 C 89 % 1007,7 hPa 0,0 l/m 12,1 km/h (2 Bft) NW 304 0 min 47 W/m 0,7 C -2,4 C 19,3 km/h (3 Bft)
12.02.2018 16:00 2,3 C 88 % 1007,8 hPa 0,0 l/m 12,8 km/h (3 Bft) SW 227 0 min 49 W/m 0,5 C -2,9 C 25,7 km/h (4 Bft)
12.02.2018 16:03 2,4 C 87 % 1007,8 hPa 0,0 l/m 13,8 km/h (3 Bft) SW 228 0 min 47 W/m 0,5 C -3,4 C 22,5 km/h (4 Bft)
12.02.2018 16:06 2,4 C 87 % 1007,9 hPa 0,0 l/m 12,7 km/h (3 Bft) SW 218 0 min 46 W/m 0,5 C -2,7 C 22,5 km/h (4 Bft)
12.02.2018 16:09 2,5 C 87 % 1007,9 hPa 0,0 l/m 11,6 km/h (2 Bft) W 268 0 min 40 W/m 0,6 C -1,9 C 19,3 km/h (3 Bft)
12.02.2018 16:12 2,5 C 87 % 1007,9 hPa 0,0 l/m 17,6 km/h (3 Bft) SW 233 0 min 39 W/m 0,6 C -5,3 C 25,7 km/h (4 Bft)
12.02.2018 16:15 2,5 C 87 % 1007,9 hPa 0,0 l/m 12,6 km/h (3 Bft) SW 232 0 min 35 W/m 0,6 C -2,5 C 20,9 km/h (4 Bft)
12.02.2018 16:18 2,5 C 87 % 1007,9 hPa 0,0 l/m 13,1 km/h (3 Bft) SW 230 0 min 35 W/m 0,6 C -2,8 C 20,9 km/h (4 Bft)
12.02.2018 16:21 2,5 C 87 % 1008,0 hPa 0,0 l/m 12,9 km/h (3 Bft) SW 233 0 min 35 W/m 0,6 C -2,7 C 20,9 km/h (4 Bft)
12.02.2018 16:24 2,6 C 87 % 1008,0 hPa 0,0 l/m 15,4 km/h (3 Bft) SW 229 0 min 37 W/m 0,7 C -4,1 C 24,1 km/h (4 Bft)
12.02.2018 16:27 2,6 C 87 % 1008,0 hPa 0,2 l/m 16,2 km/h (3 Bft) SW 232 0 min 37 W/m 0,7 C -4,5 C 25,7 km/h (4 Bft)
12.02.2018 16:30 2,7 C 87 % 1008,0 hPa 0,0 l/m 15,1 km/h (3 Bft) SW 233 0 min 39 W/m 0,8 C -3,8 C 25,7 km/h (4 Bft)
12.02.2018 16:33 2,7 C 87 % 1008,1 hPa 0,0 l/m 14,7 km/h (3 Bft) S-SW 213 0 min 40 W/m 0,8 C -3,5 C 25,7 km/h (4 Bft)
12.02.2018 16:36 2,7 C 86 % 1008,0 hPa 0,0 l/m 16,5 km/h (3 Bft) SW 219 0 min 39 W/m 0,6 C -4,5 C 24,1 km/h (4 Bft)
12.02.2018 16:39 2,7 C 86 % 1008,0 hPa 0,0 l/m 15,3 km/h (3 Bft) W-SW 252 0 min 30 W/m 0,6 C -3,9 C 29,0 km/h (5 Bft)
12.02.2018 16:42 2,7 C 86 % 1008,2 hPa 0,0 l/m 14,7 km/h (3 Bft) W-SW 239 0 min 26 W/m 0,6 C -3,5 C 20,9 km/h (4 Bft)
12.02.2018 16:45 2,7 C 87 % 1008,2 hPa 0,0 l/m 15,2 km/h (3 Bft) S-SW 213 0 min 21 W/m 0,8 C -3,8 C 22,5 km/h (4 Bft)
12.02.2018 16:48 2,7 C 87 % 1008,3 hPa 0,0 l/m 13,0 km/h (3 Bft) S-SW 196 0 min 18 W/m 0,8 C -2,5 C 19,3 km/h (3 Bft)
12.02.2018 16:51 2,7 C 87 % 1008,3 hPa 0,0 l/m 12,7 km/h (3 Bft) SW 227 0 min 16 W/m 0,8 C -2,3 C 20,9 km/h (4 Bft)
12.02.2018 16:54 2,7 C 87 % 1008,4 hPa 0,0 l/m 12,7 km/h (3 Bft) SW 216 0 min 14 W/m 0,8 C -2,3 C 17,7 km/h (3 Bft)
12.02.2018 16:57 2,7 C 87 % 1008,4 hPa 0,0 l/m 15,2 km/h (3 Bft) S-SW 205 0 min 12 W/m 0,8 C -3,8 C 24,1 km/h (4 Bft)
12.02.2018 17:00 2,7 C 87 % 1008,5 hPa 0,0 l/m 10,5 km/h (2 Bft) SW 215 0 min 11 W/m 0,8 C -0,8 C 19,3 km/h (3 Bft)
12.02.2018 17:03 2,7 C 87 % 1008,5 hPa 0,0 l/m 8,4 km/h (2 Bft) W-SW 253 0 min 9 W/m 0,8 C 0,8 C 16,1 km/h (3 Bft)
12.02.2018 17:06 2,7 C 88 % 1008,6 hPa 0,0 l/m 11,3 km/h (2 Bft) W-SW 238 0 min 7 W/m 0,9 C -1,4 C 22,5 km/h (4 Bft)
12.02.2018 17:09 2,7 C 88 % 1008,6 hPa 0,2 l/m 12,8 km/h (3 Bft) W 261 0 min 7 W/m 0,9 C -2,4 C 22,5 km/h (4 Bft)
12.02.2018 17:12 2,7 C 87 % 1008,6 hPa 0,0 l/m 12,9 km/h (3 Bft) W-SW 250 0 min 5 W/m 0,8 C -2,5 C 22,5 km/h (4 Bft)
12.02.2018 17:15 2,7 C 87 % 1008,6 hPa 0,0 l/m 11,4 km/h (2 Bft) SW 216 0 min 0 W/m 0,8 C -1,5 C 19,3 km/h (3 Bft)
12.02.2018 17:18 2,8 C 87 % 1008,6 hPa 0,0 l/m 12,5 km/h (2 Bft) SW 227 0 min 0 W/m 0,9 C -2,1 C 19,3 km/h (3 Bft)
12.02.2018 17:21 2,8 C 87 % 1008,7 hPa 0,0 l/m 11,7 km/h (2 Bft) W-SW 244 0 min 0 W/m 0,9 C -1,6 C 19,3 km/h (3 Bft)
12.02.2018 17:24 2,8 C 87 % 1008,7 hPa 0,0 l/m 9,7 km/h (2 Bft) W-SW 248 0 min 0 W/m 0,9 C -0,1 C 19,3 km/h (3 Bft)
12.02.2018 17:27 2,8 C 87 % 1008,7 hPa 0,0 l/m 11,0 km/h (2 Bft) S-SW 207 0 min 0 W/m 0,9 C -1,1 C 22,5 km/h (4 Bft)
12.02.2018 17:30 2,8 C 87 % 1008,7 hPa 0,0 l/m 11,2 km/h (2 Bft) W-SW 242 0 min 0 W/m 0,9 C -1,2 C 20,9 km/h (4 Bft)
12.02.2018 17:33 2,7 C 87 % 1008,7 hPa 0,0 l/m 13,3 km/h (3 Bft) S-SW 202 0 min 0 W/m 0,8 C -2,7 C 22,5 km/h (4 Bft)
12.02.2018 17:36 2,7 C 87 % 1008,7 hPa 0,0 l/m 13,9 km/h (3 Bft) S-SW 211 0 min 0 W/m 0,8 C -3,1 C 22,5 km/h (4 Bft)
12.02.2018 17:39 2,7 C 87 % 1008,7 hPa 0,0 l/m 12,7 km/h (3 Bft) SW 223 0 min 0 W/m 0,8 C -2,3 C 20,9 km/h (4 Bft)
12.02.2018 17:42 2,7 C 87 % 1008,7 hPa 0,0 l/m 13,8 km/h (3 Bft) W-SW 252 0 min 0 W/m 0,8 C -3,0 C 22,5 km/h (4 Bft)
12.02.2018 17:45 2,8 C 87 % 1008,8 hPa 0,0 l/m 14,7 km/h (3 Bft) W-SW 238 0 min 0 W/m 0,9 C -3,4 C 24,1 km/h (4 Bft)
12.02.2018 17:48 2,8 C 87 % 1008,8 hPa 0,0 l/m 12,5 km/h (2 Bft) SW 232 0 min 0 W/m 0,9 C -2,1 C 22,5 km/h (4 Bft)
12.02.2018 17:51 2,8 C 86 % 1008,8 hPa 0,0 l/m 12,6 km/h (3 Bft) SW 222 0 min 0 W/m 0,7 C -2,2 C 24,1 km/h (4 Bft)
12.02.2018 17:54 2,8 C 86 % 1008,8 hPa 0,0 l/m 14,3 km/h (3 Bft) W-SW 240 0 min 0 W/m 0,7 C -3,2 C 20,9 km/h (4 Bft)
12.02.2018 17:57 2,8 C 86 % 1008,8 hPa 0,0 l/m 12,5 km/h (2 Bft) W 268 0 min 0 W/m 0,7 C -2,1 C 20,9 km/h (4 Bft)
12.02.2018 18:00 2,8 C 87 % 1008,9 hPa 0,0 l/m 13,5 km/h (3 Bft) W-SW 238 0 min 0 W/m 0,9 C -2,7 C 17,7 km/h (3 Bft)
12.02.2018 18:03 2,8 C 87 % 1009,0 hPa 0,0 l/m 10,8 km/h (2 Bft) SW 235 0 min 0 W/m 0,9 C -0,9 C 20,9 km/h (4 Bft)
12.02.2018 18:06 2,8 C 87 % 1009,0 hPa 0,0 l/m 11,2 km/h (2 Bft) SW 225 0 min 0 W/m 0,9 C -1,2 C 19,3 km/h (3 Bft)
12.02.2018 18:09 2,8 C 87 % 1009,0 hPa 0,0 l/m 10,5 km/h (2 Bft) S-SW 196 0 min 0 W/m 0,9 C -0,7 C 17,7 km/h (3 Bft)
12.02.2018 18:12 2,8 C 87 % 1009,0 hPa 0,0 l/m 15,2 km/h (3 Bft) SW 229 0 min 0 W/m 0,9 C -3,7 C 22,5 km/h (4 Bft)
12.02.2018 18:15 2,8 C 88 % 1009,1 hPa 0,0 l/m 13,9 km/h (3 Bft) SW 220 0 min 0 W/m 1,0 C -3,0 C 22,5 km/h (4 Bft)
12.02.2018 18:18 2,9 C 88 % 1009,1 hPa 0,0 l/m 11,3 km/h (2 Bft) S-SW 209 0 min 0 W/m 1,1 C -1,2 C 19,3 km/h (3 Bft)
12.02.2018 18:21 2,9 C 88 % 1009,1 hPa 0,0 l/m 11,4 km/h (2 Bft) SW 225 0 min 0 W/m 1,1 C -1,3 C 16,1 km/h (3 Bft)
12.02.2018 18:24 2,9 C 88 % 1009,1 hPa 0,0 l/m 13,5 km/h (3 Bft) S 189 0 min 0 W/m 1,1 C -2,6 C 20,9 km/h (4 Bft)
12.02.2018 18:27 2,9 C 88 % 1009,2 hPa 0,0 l/m 12,7 km/h (3 Bft) SW 225 0 min 0 W/m 1,1 C -2,1 C 19,3 km/h (3 Bft)
12.02.2018 18:30 2,9 C 88 % 1009,2 hPa 0,0 l/m 11,2 km/h (2 Bft) W-SW 239 0 min 0 W/m 1,1 C -1,1 C 17,7 km/h (3 Bft)
12.02.2018 18:33 2,9 C 88 % 1009,3 hPa 0,0 l/m 12,4 km/h (2 Bft) SW 225 0 min 0 W/m 1,1 C -1,9 C 19,3 km/h (3 Bft)
12.02.2018 18:36 2,9 C 87 % 1009,3 hPa 0,0 l/m 13,5 km/h (3 Bft) SW 225 0 min 0 W/m 1,0 C -2,6 C 20,9 km/h (4 Bft)
12.02.2018 18:39 2,9 C 87 % 1009,3 hPa 0,0 l/m 14,0 km/h (3 Bft) SW 219 0 min 0 W/m 1,0 C -2,9 C 19,3 km/h (3 Bft)
12.02.2018 18:42 2,8 C 87 % 1009,3 hPa 0,0 l/m 10,8 km/h (2 Bft) SW 223 0 min 0 W/m 0,9 C -0,9 C 16,1 km/h (3 Bft)
12.02.2018 18:45 2,8 C 87 % 1009,3 hPa 0,0 l/m 11,9 km/h (2 Bft) S 188 0 min 0 W/m 0,9 C -1,7 C 19,3 km/h (3 Bft)
12.02.2018 18:48 2,8 C 87 % 1009,3 hPa 0,0 l/m 13,5 km/h (3 Bft) SW 232 0 min 0 W/m 0,9 C -2,7 C 19,3 km/h (3 Bft)
12.02.2018 18:51 2,8 C 87 % 1009,3 hPa 0,0 l/m 13,1 km/h (3 Bft) SW 233 0 min 0 W/m 0,9 C -2,5 C 25,7 km/h (4 Bft)
12.02.2018 18:54 2,8 C 87 % 1009,3 hPa 0,0 l/m 14,4 km/h (3 Bft) SW 222 0 min 0 W/m 0,9 C -3,3 C 24,1 km/h (4 Bft)
12.02.2018 18:57 2,8 C 87 % 1009,3 hPa 0,0 l/m 15,6 km/h (3 Bft) SW 225 0 min 0 W/m 0,9 C -3,9 C 25,7 km/h (4 Bft)
12.02.2018 19:00 2,9 C 87 % 1009,4 hPa 0,0 l/m 16,8 km/h (3 Bft) SW 231 0 min 0 W/m 1,0 C -4,4 C 29,0 km/h (5 Bft)
12.02.2018 19:03 2,9 C 87 % 1009,4 hPa 0,0 l/m 16,6 km/h (3 Bft) SW 224 0 min 0 W/m 1,0 C -4,3 C 27,4 km/h (5 Bft)
12.02.2018 19:06 3,0 C 87 % 1009,4 hPa 0,0 l/m 15,8 km/h (3 Bft) SW 224 0 min 0 W/m 1,1 C -3,8 C 22,5 km/h (4 Bft)
12.02.2018 19:09 3,0 C 87 % 1009,4 hPa 0,0 l/m 16,1 km/h (3 Bft) SW 226 0 min 0 W/m 1,1 C -3,9 C 22,5 km/h (4 Bft)
12.02.2018 19:12 3,0 C 87 % 1009,5 hPa 0,0 l/m 16,8 km/h (3 Bft) W-SW 242 0 min 0 W/m 1,1 C -4,3 C 27,4 km/h (5 Bft)
12.02.2018 19:15 3,0 C 87 % 1009,5 hPa 0,0 l/m 15,9 km/h (3 Bft) SW 223 0 min 0 W/m 1,1 C -3,8 C 27,4 km/h (5 Bft)
12.02.2018 19:18 3,0 C 87 % 1009,5 hPa 0,0 l/m 16,1 km/h (3 Bft) SW 219 0 min 0 W/m 1,1 C -3,9 C 27,4 km/h (5 Bft)
12.02.2018 19:21 3,0 C 87 % 1009,5 hPa 0,0 l/m 14,6 km/h (3 Bft) SW 221 0 min 0 W/m 1,1 C -3,1 C 25,7 km/h (4 Bft)
12.02.2018 19:24 3,0 C 87 % 1009,5 hPa 0,0 l/m 14,7 km/h (3 Bft) W-SW 244 0 min 0 W/m 1,1 C -3,2 C 24,1 km/h (4 Bft)
12.02.2018 19:27 2,9 C 87 % 1009,5 hPa 0,0 l/m 15,4 km/h (3 Bft) S-SW 208 0 min 0 W/m 1,0 C -3,7 C 25,7 km/h (4 Bft)
12.02.2018 19:30 2,9 C 87 % 1009,6 hPa 0,0 l/m 16,1 km/h (3 Bft) SW 227 0 min 0 W/m 1,0 C -4,1 C 25,7 km/h (4 Bft)
12.02.2018 19:33 2,9 C 87 % 1009,6 hPa 0,0 l/m 16,4 km/h (3 Bft) W-SW 255 0 min 0 W/m 1,0 C -4,2 C 24,1 km/h (4 Bft)
12.02.2018 19:36 2,9 C 87 % 1009,7 hPa 0,0 l/m 12,5 km/h (2 Bft) SW 224 0 min 0 W/m 1,0 C -2,0 C 19,3 km/h (3 Bft)
12.02.2018 19:39 2,8 C 86 % 1009,7 hPa 0,0 l/m 14,1 km/h (3 Bft) SW 231 0 min 0 W/m 0,7 C -3,1 C 22,5 km/h (4 Bft)
12.02.2018 19:42 2,8 C 86 % 1009,7 hPa 0,0 l/m 14,3 km/h (3 Bft) W-SW 246 0 min 0 W/m 0,7 C -3,2 C 24,1 km/h (4 Bft)
12.02.2018 19:45 2,8 C 87 % 1009,7 hPa 0,0 l/m 13,6 km/h (3 Bft) W-SW 240 0 min 0 W/m 0,9 C -2,8 C 24,1 km/h (4 Bft)
12.02.2018 19:48 2,8 C 87 % 1009,8 hPa 0,0 l/m 18,7 km/h (3 Bft) S-SW 211 0 min 0 W/m 0,9 C -5,4 C 27,4 km/h (5 Bft)
12.02.2018 19:51 2,8 C 87 % 1009,8 hPa 0,0 l/m 17,1 km/h (3 Bft) S-SW 212 0 min 0 W/m 0,9 C -4,7 C 24,1 km/h (4 Bft)
12.02.2018 19:54 2,7 C 87 % 1009,8 hPa 0,0 l/m 16,4 km/h (3 Bft) W-SW 240 0 min 0 W/m 0,8 C -4,5 C 27,4 km/h (5 Bft)
12.02.2018 19:57 2,7 C 87 % 1009,9 hPa 0,0 l/m 14,2 km/h (3 Bft) W-SW 244 0 min 0 W/m 0,8 C -3,3 C 24,1 km/h (4 Bft)
12.02.2018 20:00 2,7 C 88 % 1009,8 hPa 0,0 l/m 15,9 km/h (3 Bft) W-SW 250 0 min 0 W/m 0,9 C -4,2 C 27,4 km/h (5 Bft)
12.02.2018 20:03 2,7 C 88 % 1009,8 hPa 0,0 l/m 17,3 km/h (3 Bft) S-SW 211 0 min 0 W/m 0,9 C -4,9 C 29,0 km/h (5 Bft)
12.02.2018 20:06 2,6 C 88 % 1009,9 hPa 0,0 l/m 16,1 km/h (3 Bft) SW 223 0 min 0 W/m 0,8 C -4,4 C 27,4 km/h (5 Bft)
12.02.2018 20:09 2,6 C 88 % 1009,9 hPa 0,0 l/m 17,6 km/h (3 Bft) W-SW 243 0 min 0 W/m 0,8 C -5,2 C 25,7 km/h (4 Bft)
12.02.2018 20:12 2,6 C 88 % 1010,0 hPa 0,0 l/m 15,5 km/h (3 Bft) W-SW 246 0 min 0 W/m 0,8 C -4,1 C 25,7 km/h (4 Bft)
12.02.2018 20:15 2,6 C 88 % 1010,0 hPa 0,0 l/m 15,2 km/h (3 Bft) SW 227 0 min 0 W/m 0,8 C -3,9 C 24,1 km/h (4 Bft)
12.02.2018 20:18 2,6 C 88 % 1010,0 hPa 0,0 l/m 11,5 km/h (2 Bft) SW 225 0 min 0 W/m 0,8 C -1,7 C 24,1 km/h (4 Bft)
12.02.2018 20:21 2,6 C 88 % 1010,1 hPa 0,0 l/m 16,7 km/h (3 Bft) W-SW 247 0 min 0 W/m 0,8 C -4,7 C 27,4 km/h (5 Bft)
12.02.2018 20:24 2,5 C 88 % 1010,1 hPa 0,0 l/m 13,7 km/h (3 Bft) SW 221 0 min 0 W/m 0,7 C -3,2 C 20,9 km/h (4 Bft)
12.02.2018 20:27 2,4 C 89 % 1010,1 hPa 0,0 l/m 13,1 km/h (3 Bft) W-SW 249 0 min 0 W/m 0,8 C -3,0 C 22,5 km/h (4 Bft)
12.02.2018 20:30 2,4 C 88 % 1010,2 hPa 0,0 l/m 11,5 km/h (2 Bft) SW 220 0 min 0 W/m 0,6 C -1,9 C 22,5 km/h (4 Bft)
12.02.2018 20:33 2,4 C 89 % 1010,3 hPa 0,0 l/m 12,0 km/h (2 Bft) W-SW 248 0 min 0 W/m 0,8 C -2,2 C 19,3 km/h (3 Bft)
12.02.2018 20:36 2,4 C 89 % 1010,3 hPa 0,0 l/m 18,1 km/h (3 Bft) W-SW 257 0 min 0 W/m 0,8 C -5,7 C 32,2 km/h (5 Bft)
12.02.2018 20:39 2,4 C 89 % 1010,5 hPa 0,0 l/m 18,7 km/h (3 Bft) W-SW 244 0 min 0 W/m 0,8 C -6,0 C 32,2 km/h (5 Bft)
12.02.2018 20:42 2,3 C 89 % 1010,5 hPa 0,0 l/m 16,5 km/h (3 Bft) W 260 0 min 0 W/m 0,7 C -5,0 C 30,6 km/h (5 Bft)
12.02.2018 20:45 2,2 C 89 % 1010,4 hPa 0,0 l/m 12,1 km/h (2 Bft) SW 221 0 min 0 W/m 0,6 C -2,5 C 19,3 km/h (3 Bft)
12.02.2018 20:48 2,2 C 90 % 1010,4 hPa 0,0 l/m 10,6 km/h (2 Bft) SW 225 0 min 0 W/m 0,7 C -1,5 C 17,7 km/h (3 Bft)
12.02.2018 20:51 2,1 C 90 % 1010,3 hPa 0,0 l/m 11,5 km/h (2 Bft) SW 231 0 min 0 W/m 0,6 C -2,2 C 17,7 km/h (3 Bft)
12.02.2018 20:54 2,0 C 90 % 1010,4 hPa 0,0 l/m 11,2 km/h (2 Bft) W-SW 254 0 min 0 W/m 0,5 C -2,1 C 22,5 km/h (4 Bft)
12.02.2018 20:57 2,0 C 90 % 1010,4 hPa 0,0 l/m 11,5 km/h (2 Bft) SW 223 0 min 0 W/m 0,5 C -2,4 C 17,7 km/h (3 Bft)
12.02.2018 21:00 2,0 C 91 % 1010,4 hPa 0,0 l/m 11,6 km/h (2 Bft) SW 221 0 min 0 W/m 0,7 C -2,4 C 20,9 km/h (4 Bft)
12.02.2018 21:03 2,0 C 91 % 1010,3 hPa 0,0 l/m 17,8 km/h (3 Bft) SW 226 0 min 0 W/m 0,7 C -6,0 C 30,6 km/h (5 Bft)
12.02.2018 21:06 2,0 C 91 % 1010,2 hPa 0,0 l/m 13,3 km/h (3 Bft) SW 229 0 min 0 W/m 0,7 C -3,5 C 20,9 km/h (4 Bft)
12.02.2018 21:09 1,9 C 91 % 1010,4 hPa 0,0 l/m 13,0 km/h (3 Bft) S-SW 205 0 min 0 W/m 0,6 C -3,5 C 17,7 km/h (3 Bft)
12.02.2018 21:12 1,9 C 91 % 1010,4 hPa 0,0 l/m 8,2 km/h (2 Bft) SW 229 0 min 0 W/m 0,6 C 0,2 C 11,3 km/h (2 Bft)
12.02.2018 21:15 1,9 C 91 % 1010,3 hPa 0,0 l/m 8,0 km/h (2 Bft) S-SW 203 0 min 0 W/m 0,6 C 0,3 C 14,5 km/h (3 Bft)
12.02.2018 21:18 1,8 C 91 % 1010,4 hPa 0,0 l/m 8,3 km/h (2 Bft) SW 215 0 min 0 W/m 0,5 C -0,0 C 14,5 km/h (3 Bft)
12.02.2018 21:21 1,8 C 91 % 1010,5 hPa 0,0 l/m 9,3 km/h (2 Bft) SW 219 0 min 0 W/m 0,5 C -0,9 C 12,9 km/h (3 Bft)
12.02.2018 21:24 1,9 C 92 % 1010,5 hPa 0,0 l/m 10,1 km/h (2 Bft) SW 220 0 min 0 W/m 0,7 C -1,4 C 16,1 km/h (3 Bft)
12.02.2018 21:27 1,9 C 92 % 1010,5 hPa 0,0 l/m 10,7 km/h (2 Bft) SW 222 0 min 0 W/m 0,7 C -1,9 C 14,5 km/h (3 Bft)
12.02.2018 21:30 1,9 C 92 % 1010,5 hPa 0,2 l/m 13,7 km/h (3 Bft) SW 225 0 min 0 W/m 0,7 C -3,9 C 22,5 km/h (4 Bft)
12.02.2018 21:33 1,9 C 92 % 1010,5 hPa 0,0 l/m 18,2 km/h (3 Bft) SW 217 0 min 0 W/m 0,7 C -6,4 C 25,7 km/h (4 Bft)
12.02.2018 21:36 2,0 C 92 % 1010,6 hPa 0,0 l/m 17,3 km/h (3 Bft) S-SW 201 0 min 0 W/m 0,8 C -5,8 C 25,7 km/h (4 Bft)
12.02.2018 21:39 2,0 C 92 % 1010,5 hPa 0,0 l/m 15,8 km/h (3 Bft) S-SW 198 0 min 0 W/m 0,8 C -5,0 C 27,4 km/h (5 Bft)
12.02.2018 21:42 2,0 C 92 % 1010,6 hPa 0,0 l/m 14,7 km/h (3 Bft) W-SW 248 0 min 0 W/m 0,8 C -4,4 C 20,9 km/h (4 Bft)
12.02.2018 21:45 2,0 C 92 % 1010,6 hPa 0,2 l/m 14,2 km/h (3 Bft) S-SW 200 0 min 0 W/m 0,8 C -4,1 C 24,1 km/h (4 Bft)
12.02.2018 21:48 2,0 C 92 % 1010,6 hPa 0,0 l/m 15,0 km/h (3 Bft) SW 227 0 min 0 W/m 0,8 C -4,6 C 24,1 km/h (4 Bft)
12.02.2018 21:51 2,0 C 92 % 1010,6 hPa 0,0 l/m 16,3 km/h (3 Bft) SW 227 0 min 0 W/m 0,8 C -5,3 C 24,1 km/h (4 Bft)
12.02.2018 21:54 1,9 C 92 % 1010,6 hPa 0,0 l/m 14,2 km/h (3 Bft) W 262 0 min 0 W/m 0,7 C -4,2 C 22,5 km/h (4 Bft)
12.02.2018 21:57 1,9 C 92 % 1010,6 hPa 0,0 l/m 15,6 km/h (3 Bft) W-SW 255 0 min 0 W/m 0,7 C -5,0 C 25,7 km/h (4 Bft)
12.02.2018 22:00 1,9 C 92 % 1010,6 hPa 0,0 l/m 17,8 km/h (3 Bft) S-SW 207 0 min 0 W/m 0,7 C -6,2 C 27,4 km/h (5 Bft)
12.02.2018 22:03 1,9 C 92 % 1010,6 hPa 0,0 l/m 16,7 km/h (3 Bft) W-SW 250 0 min 0 W/m 0,7 C -5,6 C 24,1 km/h (4 Bft)
12.02.2018 22:06 1,9 C 92 % 1010,5 hPa 0,0 l/m 15,7 km/h (3 Bft) SW 229 0 min 0 W/m 0,7 C -5,1 C 22,5 km/h (4 Bft)
12.02.2018 22:09 1,9 C 92 % 1010,6 hPa 0,0 l/m 17,0 km/h (3 Bft) W-SW 244 0 min 0 W/m 0,7 C -5,8 C 27,4 km/h (5 Bft)
12.02.2018 22:12 1,8 C 92 % 1010,6 hPa 0,0 l/m 16,6 km/h (3 Bft) SW 216 0 min 0 W/m 0,6 C -5,7 C 29,0 km/h (5 Bft)
12.02.2018 22:15 1,8 C 92 % 1010,6 hPa 0,0 l/m 15,6 km/h (3 Bft) SW 217 0 min 0 W/m 0,6 C -5,1 C 22,5 km/h (4 Bft)
12.02.2018 22:18 1,8 C 92 % 1010,6 hPa 0,0 l/m 13,6 km/h (3 Bft) SW 228 0 min 0 W/m 0,6 C -4,0 C 17,7 km/h (3 Bft)
12.02.2018 22:21 1,8 C 92 % 1010,5 hPa 0,0 l/m 14,4 km/h (3 Bft) SW 215 0 min 0 W/m 0,6 C -4,5 C 20,9 km/h (4 Bft)
12.02.2018 22:24 1,8 C 92 % 1010,6 hPa 0,0 l/m 16,6 km/h (3 Bft) S-SW 201 0 min 0 W/m 0,6 C -5,7 C 22,5 km/h (4 Bft)
12.02.2018 22:27 1,8 C 92 % 1010,6 hPa 0,0 l/m 15,0 km/h (3 Bft) SW 229 0 min 0 W/m 0,6 C -4,8 C 24,1 km/h (4 Bft)
12.02.2018 22:30 1,8 C 92 % 1010,7 hPa 0,0 l/m 18,5 km/h (3 Bft) SW 216 0 min 0 W/m 0,6 C -6,6 C 27,4 km/h (5 Bft)
12.02.2018 22:33 1,8 C 92 % 1010,6 hPa 0,0 l/m 13,5 km/h (3 Bft) SW 221 0 min 0 W/m 0,6 C -3,9 C 22,5 km/h (4 Bft)
12.02.2018 22:36 1,8 C 92 % 1010,7 hPa 0,0 l/m 14,1 km/h (3 Bft) S-SW 213 0 min 0 W/m 0,6 C -4,3 C 22,5 km/h (4 Bft)
12.02.2018 22:39 1,8 C 92 % 1010,7 hPa 0,0 l/m 14,6 km/h (3 Bft) W-SW 258 0 min 0 W/m 0,6 C -4,6 C 20,9 km/h (4 Bft)
12.02.2018 22:42 1,8 C 92 % 1010,7 hPa 0,0 l/m 16,4 km/h (3 Bft) SW 225 0 min 0 W/m 0,6 C -5,6 C 24,1 km/h (4 Bft)
12.02.2018 22:45 1,8 C 92 % 1010,6 hPa 0,0 l/m 15,0 km/h (3 Bft) W-SW 238 0 min 0 W/m 0,6 C -4,8 C 22,5 km/h (4 Bft)
12.02.2018 22:48 1,8 C 92 % 1010,6 hPa 0,0 l/m 17,4 km/h (3 Bft) SW 223 0 min 0 W/m 0,6 C -6,1 C 27,4 km/h (5 Bft)
12.02.2018 22:51 1,8 C 93 % 1010,6 hPa 0,0 l/m 17,0 km/h (3 Bft) S-SW 205 0 min 0 W/m 0,8 C -5,9 C 25,7 km/h (4 Bft)
12.02.2018 22:54 1,8 C 93 % 1010,6 hPa 0,0 l/m 16,0 km/h (3 Bft) SW 219 0 min 0 W/m 0,8 C -5,4 C 22,5 km/h (4 Bft)
12.02.2018 22:57 1,8 C 93 % 1010,6 hPa 0,0 l/m 15,1 km/h (3 Bft) SW 235 0 min 0 W/m 0,8 C -4,9 C 22,5 km/h (4 Bft)
12.02.2018 23:00 1,8 C 92 % 1010,6 hPa 0,0 l/m 17,3 km/h (3 Bft) W-SW 251 0 min 0 W/m 0,6 C -6,0 C 27,4 km/h (5 Bft)
12.02.2018 23:03 1,8 C 93 % 1010,7 hPa 0,0 l/m 15,2 km/h (3 Bft) W-SW 256 0 min 0 W/m 0,8 C -4,9 C 27,4 km/h (5 Bft)
12.02.2018 23:06 1,8 C 92 % 1010,7 hPa 0,0 l/m 14,3 km/h (3 Bft) SW 226 0 min 0 W/m 0,6 C -4,4 C 22,5 km/h (4 Bft)
12.02.2018 23:09 1,8 C 92 % 1010,7 hPa 0,0 l/m 15,5 km/h (3 Bft) W-SW 242 0 min 0 W/m 0,6 C -5,1 C 24,1 km/h (4 Bft)
12.02.2018 23:12 1,8 C 93 % 1010,7 hPa 0,0 l/m 14,7 km/h (3 Bft) SW 229 0 min 0 W/m 0,8 C -4,6 C 20,9 km/h (4 Bft)
12.02.2018 23:15 1,8 C 93 % 1010,8 hPa 0,0 l/m 15,4 km/h (3 Bft) SW 215 0 min 0 W/m 0,8 C -5,0 C 27,4 km/h (5 Bft)
12.02.2018 23:18 1,8 C 93 % 1010,8 hPa 0,0 l/m 12,7 km/h (3 Bft) SW 222 0 min 0 W/m 0,8 C -3,4 C 17,7 km/h (3 Bft)
12.02.2018 23:21 1,8 C 93 % 1010,8 hPa 0,0 l/m 13,7 km/h (3 Bft) W-SW 251 0 min 0 W/m 0,8 C -4,0 C 20,9 km/h (4 Bft)
12.02.2018 23:24 1,8 C 93 % 1010,8 hPa 0,0 l/m 14,4 km/h (3 Bft) W-SW 252 0 min 0 W/m 0,8 C -4,5 C 22,5 km/h (4 Bft)
12.02.2018 23:27 1,8 C 93 % 1010,8 hPa 0,2 l/m 16,9 km/h (3 Bft) W-SW 237 0 min 0 W/m 0,8 C -5,8 C 27,4 km/h (5 Bft)
12.02.2018 23:30 1,7 C 93 % 1010,8 hPa 0,0 l/m 16,7 km/h (3 Bft) W-SW 239 0 min 0 W/m 0,7 C -5,9 C 29,0 km/h (5 Bft)
12.02.2018 23:33 1,7 C 93 % 1010,8 hPa 0,0 l/m 12,4 km/h (2 Bft) SW 215 0 min 0 W/m 0,7 C -3,3 C 19,3 km/h (3 Bft)
12.02.2018 23:36 1,7 C 93 % 1010,8 hPa 0,0 l/m 13,6 km/h (3 Bft) SW 233 0 min 0 W/m 0,7 C -4,1 C 19,3 km/h (3 Bft)
12.02.2018 23:39 1,7 C 93 % 1010,8 hPa 0,0 l/m 12,6 km/h (3 Bft) SW 234 0 min 0 W/m 0,7 C -3,4 C 19,3 km/h (3 Bft)
12.02.2018 23:42 1,7 C 93 % 1010,8 hPa 0,0 l/m 15,4 km/h (3 Bft) SW 227 0 min 0 W/m 0,7 C -5,1 C 22,5 km/h (4 Bft)
12.02.2018 23:45 1,7 C 93 % 1010,8 hPa 0,0 l/m 15,3 km/h (3 Bft) SW 217 0 min 0 W/m 0,7 C -5,1 C 22,5 km/h (4 Bft)
12.02.2018 23:48 1,7 C 93 % 1010,8 hPa 0,0 l/m 16,1 km/h (3 Bft) SW 214 0 min 0 W/m 0,7 C -5,5 C 29,0 km/h (5 Bft)
12.02.2018 23:51 1,7 C 93 % 1010,9 hPa 0,0 l/m 13,0 km/h (3 Bft) SW 226 0 min 0 W/m 0,7 C -3,7 C 20,9 km/h (4 Bft)
12.02.2018 23:54 1,7 C 93 % 1010,9 hPa 0,0 l/m 13,6 km/h (3 Bft) SW 215 0 min 0 W/m 0,7 C -4,1 C 20,9 km/h (4 Bft)
12.02.2018 23:57 1,7 C 93 % 1010,9 hPa 0,0 l/m 14,8 km/h (3 Bft) S-SW 210 0 min 0 W/m 0,7 C -4,8 C 22,5 km/h (4 Bft)
_ Min-Zeit 15:15 12:54 00:00 - 08:57 - - - - 14:39 04:51 08:57
Minimum _ 1,5 C 76 % 997,4 hPa - 3,5 km/h (1 Bft) - - - - 0,2 C -9,8 C 6,4 km/h (2 Bft)
_ Max-Zeit 12:39 08:18 23:51 07:12 04:18 - - 11:54 12:39 12:27 12:30 00:57
Maximum _ 5,3 C 94 % 1010,9 hPa 0,2 l/m 28,0 km/h
S-SW (5 Bft)
- - 3 min 489 W/m 2,6 C 2,6 C 46,7 km/h
W-SW (6 Bft)
Durchschnitt _ 2,6 C 89 % 1004,9 hPa #2,0 l/m 15,9 km/h (3 Bft) SW - #39 min. 81 W/m 1,0 C -4,0 C 25,5 km/h (4 Bft)
2018 Cux-Wetter.de -Die Nutzung der Wetterdaten nur mit ausdrcklicher Genehmigung